<?xml version="1.0" encoding="UTF-8" standalone="no" ?>
<gpx xmlns="http://www.topografix.com/GPX/1/1" xmlns:xsi="http://www.w3.org/2001/XMLSchema-instance" xsi:schemaLocation="http://www.topografix.com/GPX/1/1 http://www.topografix.com/GPX/1/1/gpx.xsd" version="1.1" creator="VisuGPX - https://www.visugpx.com">
  <metadata>
    <name>83 - Brue-Auriac - RandoCool - Le plus grand pigeonnier d'Europe</name>
    <desc><![CDATA[Nous sommes partis de la Chapelle Notre Dame pour traverser le village et monter vers ce grand Pigeonnier.

Nous avons ensuite fait une grande boucle dans la campagne avec une descente un peu difficile dans le GR qui emprunte ... le lit à sec d'un ruisseau. 

Zone instable, pierres qui roulent, ... pas top ce passage.

Nous avons quand même fini par retourner au villages et au parking de la chapelle où nous avons pris le thé rituel d'après rando avant de nous quitter]]></desc>
  </metadata>
  <wpt lat="43.52027" lon="5.94139">
    <ele>292</ele>
    <name><![CDATA[Chapelle Notre Dame]]></name>
    <desc><![CDATA[Départ]]></desc>
    <cmt><![CDATA[Départ]]></cmt>
  </wpt>
  <wpt lat="43.53878" lon="5.91682">
    <ele>407.2</ele>
    <name><![CDATA[Début partie difficile]]></name>
    <desc><![CDATA[Lit de la rivière]]></desc>
    <cmt><![CDATA[Lit de la rivière]]></cmt>
  </wpt>
  <wpt lat="43.53232" lon="5.93068">
    <ele>317</ele>
    <name><![CDATA[Fin partie difficile]]></name>
    <desc><![CDATA[Lit de la rivière]]></desc>
    <cmt><![CDATA[Lit de la rivière]]></cmt>
  </wpt>
  <wpt lat="43.5281" lon="5.94934">
    <ele>291.1</ele>
    <name><![CDATA[Pigeonnier Roux de Corse]]></name>
    <desc><![CDATA[Forêt]]></desc>
    <cmt><![CDATA[Forêt]]></cmt>
  </wpt>
  <wpt lat="43.55371" lon="5.91165">
    <ele>435</ele>
    <name><![CDATA[Pique-Nique]]></name>
    <desc><![CDATA[Clairière]]></desc>
    <cmt><![CDATA[Clairière]]></cmt>
  </wpt>
  <trk>
    <name><![CDATA[Brue-Auriac - RandoCool - Le plus grand pigeonnier d'Europe]]></name>
    <trkseg>
      <trkpt lat="43.52026" lon="5.94107">
        <ele>290.46</ele>
        <time>2017-02-25T09:04:05Z</time>
      </trkpt>
      <trkpt lat="43.5203" lon="5.94111">
        <ele>290.46</ele>
        <time>2017-02-25T09:04:23Z</time>
      </trkpt>
      <trkpt lat="43.52045" lon="5.94107">
        <ele>289.01</ele>
        <time>2017-02-25T09:04:39Z</time>
      </trkpt>
      <trkpt lat="43.52052" lon="5.94104">
        <ele>288.05</ele>
        <time>2017-02-25T09:04:49Z</time>
      </trkpt>
      <trkpt lat="43.52068" lon="5.94099">
        <ele>287.09</ele>
        <time>2017-02-25T09:05:06Z</time>
      </trkpt>
      <trkpt lat="43.52086" lon="5.94093">
        <ele>285.65</ele>
        <time>2017-02-25T09:05:23Z</time>
      </trkpt>
      <trkpt lat="43.52104" lon="5.94085">
        <ele>284.69</ele>
        <time>2017-02-25T09:05:40Z</time>
      </trkpt>
      <trkpt lat="43.52119" lon="5.94082">
        <ele>283.25</ele>
        <time>2017-02-25T09:05:59Z</time>
      </trkpt>
      <trkpt lat="43.52125" lon="5.9408">
        <ele>283.25</ele>
        <time>2017-02-25T09:06:20Z</time>
      </trkpt>
      <trkpt lat="43.52144" lon="5.94074">
        <ele>280.84</ele>
        <time>2017-02-25T09:06:37Z</time>
      </trkpt>
      <trkpt lat="43.52163" lon="5.94066">
        <ele>278.44</ele>
        <time>2017-02-25T09:06:54Z</time>
      </trkpt>
      <trkpt lat="43.52166" lon="5.94065">
        <ele>278.44</ele>
        <time>2017-02-25T09:06:57Z</time>
      </trkpt>
      <trkpt lat="43.52189" lon="5.94057">
        <ele>276.52</ele>
        <time>2017-02-25T09:07:17Z</time>
      </trkpt>
      <trkpt lat="43.52211" lon="5.94049">
        <ele>274.11</ele>
        <time>2017-02-25T09:07:36Z</time>
      </trkpt>
      <trkpt lat="43.52236" lon="5.9404">
        <ele>271.71</ele>
        <time>2017-02-25T09:07:57Z</time>
      </trkpt>
      <trkpt lat="43.52258" lon="5.94034">
        <ele>269.79</ele>
        <time>2017-02-25T09:08:15Z</time>
      </trkpt>
      <trkpt lat="43.52281" lon="5.94025">
        <ele>267.86</ele>
        <time>2017-02-25T09:08:35Z</time>
      </trkpt>
      <trkpt lat="43.52296" lon="5.94018">
        <ele>266.42</ele>
        <time>2017-02-25T09:08:49Z</time>
      </trkpt>
      <trkpt lat="43.52313" lon="5.94013">
        <ele>266.42</ele>
        <time>2017-02-25T09:09:04Z</time>
      </trkpt>
      <trkpt lat="43.52332" lon="5.94005">
        <ele>265.46</ele>
        <time>2017-02-25T09:09:20Z</time>
      </trkpt>
      <trkpt lat="43.52353" lon="5.93997">
        <ele>264.5</ele>
        <time>2017-02-25T09:09:38Z</time>
      </trkpt>
      <trkpt lat="43.52373" lon="5.9399">
        <ele>264.02</ele>
        <time>2017-02-25T09:09:55Z</time>
      </trkpt>
      <trkpt lat="43.52394" lon="5.93983">
        <ele>263.54</ele>
        <time>2017-02-25T09:10:13Z</time>
      </trkpt>
      <trkpt lat="43.52412" lon="5.93976">
        <ele>263.06</ele>
        <time>2017-02-25T09:10:29Z</time>
      </trkpt>
      <trkpt lat="43.52414" lon="5.93977">
        <ele>262.58</ele>
        <time>2017-02-25T09:10:41Z</time>
      </trkpt>
      <trkpt lat="43.52408" lon="5.93975">
        <ele>262.58</ele>
        <time>2017-02-25T09:10:54Z</time>
      </trkpt>
      <trkpt lat="43.52411" lon="5.93977">
        <ele>262.58</ele>
        <time>2017-02-25T09:11:05Z</time>
      </trkpt>
      <trkpt lat="43.52416" lon="5.93977">
        <ele>262.58</ele>
        <time>2017-02-25T09:11:22Z</time>
      </trkpt>
      <trkpt lat="43.52428" lon="5.93986">
        <ele>262.1</ele>
        <time>2017-02-25T09:11:36Z</time>
      </trkpt>
      <trkpt lat="43.52437" lon="5.93999">
        <ele>262.1</ele>
        <time>2017-02-25T09:11:49Z</time>
      </trkpt>
      <trkpt lat="43.5245" lon="5.9402">
        <ele>261.62</ele>
        <time>2017-02-25T09:12:06Z</time>
      </trkpt>
      <trkpt lat="43.52463" lon="5.94033">
        <ele>262.1</ele>
        <time>2017-02-25T09:12:20Z</time>
      </trkpt>
      <trkpt lat="43.52463" lon="5.94034">
        <ele>262.1</ele>
        <time>2017-02-25T09:12:21Z</time>
      </trkpt>
      <trkpt lat="43.52476" lon="5.9405">
        <ele>262.1</ele>
        <time>2017-02-25T09:12:37Z</time>
      </trkpt>
      <trkpt lat="43.52484" lon="5.94068">
        <ele>262.1</ele>
        <time>2017-02-25T09:12:49Z</time>
      </trkpt>
      <trkpt lat="43.52492" lon="5.94072">
        <ele>262.1</ele>
        <time>2017-02-25T09:12:56Z</time>
      </trkpt>
      <trkpt lat="43.52499" lon="5.94076">
        <ele>262.1</ele>
        <time>2017-02-25T09:13:11Z</time>
      </trkpt>
      <trkpt lat="43.52498" lon="5.94075">
        <ele>262.1</ele>
        <time>2017-02-25T09:13:29Z</time>
      </trkpt>
      <trkpt lat="43.52503" lon="5.94078">
        <ele>262.1</ele>
        <time>2017-02-25T09:13:39Z</time>
      </trkpt>
      <trkpt lat="43.52516" lon="5.94094">
        <ele>261.62</ele>
        <time>2017-02-25T09:13:57Z</time>
      </trkpt>
      <trkpt lat="43.52514" lon="5.94093">
        <ele>261.62</ele>
        <time>2017-02-25T09:14:13Z</time>
      </trkpt>
      <trkpt lat="43.52513" lon="5.94093">
        <ele>261.62</ele>
        <time>2017-02-25T09:14:28Z</time>
      </trkpt>
      <trkpt lat="43.52518" lon="5.94095">
        <ele>261.62</ele>
        <time>2017-02-25T09:14:31Z</time>
      </trkpt>
      <trkpt lat="43.52539" lon="5.94116">
        <ele>261.62</ele>
        <time>2017-02-25T09:14:50Z</time>
      </trkpt>
      <trkpt lat="43.52575" lon="5.94163">
        <ele>260.17</ele>
        <time>2017-02-25T09:17:09Z</time>
      </trkpt>
      <trkpt lat="43.52576" lon="5.94165">
        <ele>260.17</ele>
        <time>2017-02-25T09:17:11Z</time>
      </trkpt>
      <trkpt lat="43.52594" lon="5.94188">
        <ele>260.17</ele>
        <time>2017-02-25T09:17:29Z</time>
      </trkpt>
      <trkpt lat="43.52604" lon="5.94198">
        <ele>260.17</ele>
        <time>2017-02-25T09:17:43Z</time>
      </trkpt>
      <trkpt lat="43.52604" lon="5.94198">
        <ele>260.17</ele>
        <time>2017-02-25T09:17:44Z</time>
      </trkpt>
      <trkpt lat="43.52609" lon="5.94193">
        <ele>260.17</ele>
        <time>2017-02-25T09:17:49Z</time>
      </trkpt>
      <trkpt lat="43.52615" lon="5.94198">
        <ele>260.17</ele>
        <time>2017-02-25T09:17:56Z</time>
      </trkpt>
      <trkpt lat="43.5262" lon="5.94203">
        <ele>260.17</ele>
        <time>2017-02-25T09:18:02Z</time>
      </trkpt>
      <trkpt lat="43.5263" lon="5.94224">
        <ele>260.17</ele>
        <time>2017-02-25T09:18:18Z</time>
      </trkpt>
      <trkpt lat="43.52638" lon="5.94254">
        <ele>260.17</ele>
        <time>2017-02-25T09:18:36Z</time>
      </trkpt>
      <trkpt lat="43.52641" lon="5.94263">
        <ele>260.17</ele>
        <time>2017-02-25T09:18:49Z</time>
      </trkpt>
      <trkpt lat="43.5265" lon="5.94284">
        <ele>260.65</ele>
        <time>2017-02-25T09:19:08Z</time>
      </trkpt>
      <trkpt lat="43.52658" lon="5.943">
        <ele>260.65</ele>
        <time>2017-02-25T09:19:22Z</time>
      </trkpt>
      <trkpt lat="43.52665" lon="5.94314">
        <ele>260.17</ele>
        <time>2017-02-25T09:19:32Z</time>
      </trkpt>
      <trkpt lat="43.52667" lon="5.94319">
        <ele>260.17</ele>
        <time>2017-02-25T09:19:41Z</time>
      </trkpt>
      <trkpt lat="43.52672" lon="5.94324">
        <ele>260.17</ele>
        <time>2017-02-25T09:19:47Z</time>
      </trkpt>
      <trkpt lat="43.52681" lon="5.94352">
        <ele>260.17</ele>
        <time>2017-02-25T09:20:05Z</time>
      </trkpt>
      <trkpt lat="43.52687" lon="5.94366">
        <ele>259.69</ele>
        <time>2017-02-25T09:20:15Z</time>
      </trkpt>
      <trkpt lat="43.52698" lon="5.94386">
        <ele>259.69</ele>
        <time>2017-02-25T09:20:30Z</time>
      </trkpt>
      <trkpt lat="43.52705" lon="5.94401">
        <ele>259.69</ele>
        <time>2017-02-25T09:20:41Z</time>
      </trkpt>
      <trkpt lat="43.52715" lon="5.94423">
        <ele>259.69</ele>
        <time>2017-02-25T09:20:57Z</time>
      </trkpt>
      <trkpt lat="43.5272" lon="5.94429">
        <ele>259.69</ele>
        <time>2017-02-25T09:21:08Z</time>
      </trkpt>
      <trkpt lat="43.52725" lon="5.94436">
        <ele>261.14</ele>
        <time>2017-02-25T09:21:25Z</time>
      </trkpt>
      <trkpt lat="43.52735" lon="5.94444">
        <ele>261.62</ele>
        <time>2017-02-25T09:21:39Z</time>
      </trkpt>
      <trkpt lat="43.52738" lon="5.94446">
        <ele>261.62</ele>
        <time>2017-02-25T09:21:51Z</time>
      </trkpt>
      <trkpt lat="43.52738" lon="5.94445">
        <ele>262.1</ele>
        <time>2017-02-25T09:22:08Z</time>
      </trkpt>
      <trkpt lat="43.52737" lon="5.94452">
        <ele>262.1</ele>
        <time>2017-02-25T09:22:25Z</time>
      </trkpt>
      <trkpt lat="43.52737" lon="5.94465">
        <ele>262.1</ele>
        <time>2017-02-25T09:22:40Z</time>
      </trkpt>
      <trkpt lat="43.52741" lon="5.94475">
        <ele>262.1</ele>
        <time>2017-02-25T09:23:57Z</time>
      </trkpt>
      <trkpt lat="43.52744" lon="5.94488">
        <ele>262.1</ele>
        <time>2017-02-25T09:24:12Z</time>
      </trkpt>
      <trkpt lat="43.52746" lon="5.94491">
        <ele>262.1</ele>
        <time>2017-02-25T09:24:26Z</time>
      </trkpt>
      <trkpt lat="43.52746" lon="5.94492">
        <ele>262.1</ele>
        <time>2017-02-25T09:24:27Z</time>
      </trkpt>
      <trkpt lat="43.52749" lon="5.94501">
        <ele>262.1</ele>
        <time>2017-02-25T09:24:33Z</time>
      </trkpt>
      <trkpt lat="43.52753" lon="5.94505">
        <ele>262.58</ele>
        <time>2017-02-25T09:24:38Z</time>
      </trkpt>
      <trkpt lat="43.52763" lon="5.94535">
        <ele>261.14</ele>
        <time>2017-02-25T09:24:56Z</time>
      </trkpt>
      <trkpt lat="43.52768" lon="5.94546">
        <ele>261.14</ele>
        <time>2017-02-25T09:25:04Z</time>
      </trkpt>
      <trkpt lat="43.52773" lon="5.94554">
        <ele>260.65</ele>
        <time>2017-02-25T09:25:11Z</time>
      </trkpt>
      <trkpt lat="43.52782" lon="5.94573">
        <ele>260.65</ele>
        <time>2017-02-25T09:25:27Z</time>
      </trkpt>
      <trkpt lat="43.52783" lon="5.94575">
        <ele>260.65</ele>
        <time>2017-02-25T09:25:29Z</time>
      </trkpt>
      <trkpt lat="43.5279" lon="5.94595">
        <ele>259.69</ele>
        <time>2017-02-25T09:26:26Z</time>
      </trkpt>
      <trkpt lat="43.52805" lon="5.94596">
        <ele>259.69</ele>
        <time>2017-02-25T09:26:40Z</time>
      </trkpt>
      <trkpt lat="43.52823" lon="5.94601">
        <ele>259.69</ele>
        <time>2017-02-25T09:26:55Z</time>
      </trkpt>
      <trkpt lat="43.52825" lon="5.94603">
        <ele>259.69</ele>
        <time>2017-02-25T09:26:57Z</time>
      </trkpt>
      <trkpt lat="43.52849" lon="5.94613">
        <ele>259.69</ele>
        <time>2017-02-25T09:27:15Z</time>
      </trkpt>
      <trkpt lat="43.52852" lon="5.94626">
        <ele>259.21</ele>
        <time>2017-02-25T09:27:28Z</time>
      </trkpt>
      <trkpt lat="43.52848" lon="5.94644">
        <ele>258.73</ele>
        <time>2017-02-25T09:27:42Z</time>
      </trkpt>
      <trkpt lat="43.52848" lon="5.94661">
        <ele>258.73</ele>
        <time>2017-02-25T09:27:56Z</time>
      </trkpt>
      <trkpt lat="43.52848" lon="5.94663">
        <ele>258.73</ele>
        <time>2017-02-25T09:27:57Z</time>
      </trkpt>
      <trkpt lat="43.52857" lon="5.9468">
        <ele>259.21</ele>
        <time>2017-02-25T09:28:12Z</time>
      </trkpt>
      <trkpt lat="43.52863" lon="5.9469">
        <ele>259.21</ele>
        <time>2017-02-25T09:28:25Z</time>
      </trkpt>
      <trkpt lat="43.52865" lon="5.94694">
        <ele>259.21</ele>
        <time>2017-02-25T09:28:37Z</time>
      </trkpt>
      <trkpt lat="43.52866" lon="5.94692">
        <ele>259.21</ele>
        <time>2017-02-25T09:28:52Z</time>
      </trkpt>
      <trkpt lat="43.52866" lon="5.94691">
        <ele>259.21</ele>
        <time>2017-02-25T09:29:18Z</time>
      </trkpt>
      <trkpt lat="43.52867" lon="5.94692">
        <ele>259.21</ele>
        <time>2017-02-25T09:29:44Z</time>
      </trkpt>
      <trkpt lat="43.52865" lon="5.94692">
        <ele>259.21</ele>
        <time>2017-02-25T09:30:05Z</time>
      </trkpt>
      <trkpt lat="43.52874" lon="5.94697">
        <ele>259.21</ele>
        <time>2017-02-25T09:30:15Z</time>
      </trkpt>
      <trkpt lat="43.52876" lon="5.94698">
        <ele>259.21</ele>
        <time>2017-02-25T09:30:18Z</time>
      </trkpt>
      <trkpt lat="43.52888" lon="5.94707">
        <ele>260.65</ele>
        <time>2017-02-25T09:30:32Z</time>
      </trkpt>
      <trkpt lat="43.52899" lon="5.94717">
        <ele>261.14</ele>
        <time>2017-02-25T09:30:45Z</time>
      </trkpt>
      <trkpt lat="43.52908" lon="5.94727">
        <ele>262.1</ele>
        <time>2017-02-25T09:30:59Z</time>
      </trkpt>
      <trkpt lat="43.52919" lon="5.9474">
        <ele>263.54</ele>
        <time>2017-02-25T09:31:16Z</time>
      </trkpt>
      <trkpt lat="43.5293" lon="5.94747">
        <ele>264.5</ele>
        <time>2017-02-25T09:31:29Z</time>
      </trkpt>
      <trkpt lat="43.5294" lon="5.94753">
        <ele>265.94</ele>
        <time>2017-02-25T09:31:42Z</time>
      </trkpt>
      <trkpt lat="43.52953" lon="5.94762">
        <ele>267.86</ele>
        <time>2017-02-25T09:31:57Z</time>
      </trkpt>
      <trkpt lat="43.52963" lon="5.94771">
        <ele>269.79</ele>
        <time>2017-02-25T09:32:12Z</time>
      </trkpt>
      <trkpt lat="43.52974" lon="5.94781">
        <ele>271.71</ele>
        <time>2017-02-25T09:32:26Z</time>
      </trkpt>
      <trkpt lat="43.52982" lon="5.9479">
        <ele>273.63</ele>
        <time>2017-02-25T09:32:38Z</time>
      </trkpt>
      <trkpt lat="43.52992" lon="5.94799">
        <ele>275.07</ele>
        <time>2017-02-25T09:32:50Z</time>
      </trkpt>
      <trkpt lat="43.53003" lon="5.94817">
        <ele>277.48</ele>
        <time>2017-02-25T09:33:29Z</time>
      </trkpt>
      <trkpt lat="43.53006" lon="5.94825">
        <ele>278.92</ele>
        <time>2017-02-25T09:33:39Z</time>
      </trkpt>
      <trkpt lat="43.5301" lon="5.94831">
        <ele>279.4</ele>
        <time>2017-02-25T09:33:44Z</time>
      </trkpt>
      <trkpt lat="43.53013" lon="5.94838">
        <ele>280.36</ele>
        <time>2017-02-25T09:33:49Z</time>
      </trkpt>
      <trkpt lat="43.53017" lon="5.94845">
        <ele>281.32</ele>
        <time>2017-02-25T09:33:55Z</time>
      </trkpt>
      <trkpt lat="43.53018" lon="5.94849">
        <ele>281.8</ele>
        <time>2017-02-25T09:33:58Z</time>
      </trkpt>
      <trkpt lat="43.53024" lon="5.94871">
        <ele>285.17</ele>
        <time>2017-02-25T09:34:15Z</time>
      </trkpt>
      <trkpt lat="43.53029" lon="5.94887">
        <ele>286.61</ele>
        <time>2017-02-25T09:34:28Z</time>
      </trkpt>
      <trkpt lat="43.53033" lon="5.94897">
        <ele>287.57</ele>
        <time>2017-02-25T09:34:40Z</time>
      </trkpt>
      <trkpt lat="43.5303" lon="5.949">
        <ele>288.05</ele>
        <time>2017-02-25T09:34:55Z</time>
      </trkpt>
      <trkpt lat="43.53027" lon="5.949">
        <ele>288.05</ele>
        <time>2017-02-25T09:35:02Z</time>
      </trkpt>
      <trkpt lat="43.53019" lon="5.94907">
        <ele>288.05</ele>
        <time>2017-02-25T09:35:17Z</time>
      </trkpt>
      <trkpt lat="43.53021" lon="5.94908">
        <ele>288.05</ele>
        <time>2017-02-25T09:35:38Z</time>
      </trkpt>
      <trkpt lat="43.5302" lon="5.94907">
        <ele>288.05</ele>
        <time>2017-02-25T09:35:46Z</time>
      </trkpt>
      <trkpt lat="43.5301" lon="5.94909">
        <ele>288.05</ele>
        <time>2017-02-25T09:35:58Z</time>
      </trkpt>
      <trkpt lat="43.52994" lon="5.94907">
        <ele>288.05</ele>
        <time>2017-02-25T09:36:09Z</time>
      </trkpt>
      <trkpt lat="43.52983" lon="5.94906">
        <ele>288.05</ele>
        <time>2017-02-25T09:36:18Z</time>
      </trkpt>
      <trkpt lat="43.52967" lon="5.94907">
        <ele>289.97</ele>
        <time>2017-02-25T09:36:32Z</time>
      </trkpt>
      <trkpt lat="43.52966" lon="5.94906">
        <ele>289.97</ele>
        <time>2017-02-25T09:36:33Z</time>
      </trkpt>
      <trkpt lat="43.52952" lon="5.94908">
        <ele>290.46</ele>
        <time>2017-02-25T09:36:47Z</time>
      </trkpt>
      <trkpt lat="43.52949" lon="5.94907">
        <ele>290.46</ele>
        <time>2017-02-25T09:36:53Z</time>
      </trkpt>
      <trkpt lat="43.52928" lon="5.94904">
        <ele>290.46</ele>
        <time>2017-02-25T09:37:11Z</time>
      </trkpt>
      <trkpt lat="43.52913" lon="5.94905">
        <ele>289.01</ele>
        <time>2017-02-25T09:37:23Z</time>
      </trkpt>
      <trkpt lat="43.52895" lon="5.94906">
        <ele>288.05</ele>
        <time>2017-02-25T09:37:43Z</time>
      </trkpt>
      <trkpt lat="43.52891" lon="5.94907">
        <ele>287.57</ele>
        <time>2017-02-25T09:38:01Z</time>
      </trkpt>
      <trkpt lat="43.52869" lon="5.94905">
        <ele>286.61</ele>
        <time>2017-02-25T09:38:19Z</time>
      </trkpt>
      <trkpt lat="43.52848" lon="5.949">
        <ele>285.65</ele>
        <time>2017-02-25T09:38:37Z</time>
      </trkpt>
      <trkpt lat="43.52843" lon="5.94899">
        <ele>285.65</ele>
        <time>2017-02-25T09:38:51Z</time>
      </trkpt>
      <trkpt lat="43.52824" lon="5.94898">
        <ele>285.65</ele>
        <time>2017-02-25T09:39:06Z</time>
      </trkpt>
      <trkpt lat="43.52805" lon="5.94904">
        <ele>285.65</ele>
        <time>2017-02-25T09:39:21Z</time>
      </trkpt>
      <trkpt lat="43.52795" lon="5.94916">
        <ele>287.57</ele>
        <time>2017-02-25T09:39:36Z</time>
      </trkpt>
      <trkpt lat="43.52794" lon="5.94923">
        <ele>289.97</ele>
        <time>2017-02-25T09:43:58Z</time>
      </trkpt>
      <trkpt lat="43.52804" lon="5.94934">
        <ele>290.94</ele>
        <time>2017-02-25T09:44:12Z</time>
      </trkpt>
      <trkpt lat="43.52805" lon="5.9494">
        <ele>291.42</ele>
        <time>2017-02-25T09:44:21Z</time>
      </trkpt>
      <trkpt lat="43.52806" lon="5.94945">
        <ele>291.9</ele>
        <time>2017-02-25T09:44:33Z</time>
      </trkpt>
      <trkpt lat="43.52806" lon="5.94947">
        <ele>291.9</ele>
        <time>2017-02-25T09:44:58Z</time>
      </trkpt>
      <trkpt lat="43.52807" lon="5.94946">
        <ele>291.9</ele>
        <time>2017-02-25T09:45:03Z</time>
      </trkpt>
      <trkpt lat="43.5281" lon="5.94947">
        <ele>291.9</ele>
        <time>2017-02-25T09:45:14Z</time>
      </trkpt>
      <trkpt lat="43.52817" lon="5.94941">
        <ele>291.9</ele>
        <time>2017-02-25T09:45:29Z</time>
      </trkpt>
      <trkpt lat="43.5282" lon="5.94937">
        <ele>292.38</ele>
        <time>2017-02-25T09:56:58Z</time>
      </trkpt>
      <trkpt lat="43.52818" lon="5.94932">
        <ele>291.9</ele>
        <time>2017-02-25T09:57:02Z</time>
      </trkpt>
      <trkpt lat="43.52812" lon="5.94925">
        <ele>291.9</ele>
        <time>2017-02-25T09:57:14Z</time>
      </trkpt>
      <trkpt lat="43.52809" lon="5.94925">
        <ele>291.42</ele>
        <time>2017-02-25T09:57:16Z</time>
      </trkpt>
      <trkpt lat="43.52806" lon="5.94927">
        <ele>291.42</ele>
        <time>2017-02-25T09:57:31Z</time>
      </trkpt>
      <trkpt lat="43.528" lon="5.94929">
        <ele>291.42</ele>
        <time>2017-02-25T09:57:45Z</time>
      </trkpt>
      <trkpt lat="43.52793" lon="5.94922">
        <ele>289.97</ele>
        <time>2017-02-25T09:57:58Z</time>
      </trkpt>
      <trkpt lat="43.52802" lon="5.94905">
        <ele>288.05</ele>
        <time>2017-02-25T09:58:14Z</time>
      </trkpt>
      <trkpt lat="43.52806" lon="5.94902">
        <ele>288.05</ele>
        <time>2017-02-25T09:58:29Z</time>
      </trkpt>
      <trkpt lat="43.52814" lon="5.94897">
        <ele>287.57</ele>
        <time>2017-02-25T09:58:42Z</time>
      </trkpt>
      <trkpt lat="43.52815" lon="5.94898">
        <ele>287.57</ele>
        <time>2017-02-25T09:58:55Z</time>
      </trkpt>
      <trkpt lat="43.52815" lon="5.94899">
        <ele>287.57</ele>
        <time>2017-02-25T09:59:09Z</time>
      </trkpt>
      <trkpt lat="43.52819" lon="5.94897">
        <ele>287.57</ele>
        <time>2017-02-25T09:59:12Z</time>
      </trkpt>
      <trkpt lat="43.52836" lon="5.94895">
        <ele>287.09</ele>
        <time>2017-02-25T09:59:27Z</time>
      </trkpt>
      <trkpt lat="43.52855" lon="5.94897">
        <ele>287.09</ele>
        <time>2017-02-25T09:59:44Z</time>
      </trkpt>
      <trkpt lat="43.52872" lon="5.949">
        <ele>287.09</ele>
        <time>2017-02-25T10:00:01Z</time>
      </trkpt>
      <trkpt lat="43.52888" lon="5.949">
        <ele>288.53</ele>
        <time>2017-02-25T10:00:16Z</time>
      </trkpt>
      <trkpt lat="43.52903" lon="5.94901">
        <ele>289.49</ele>
        <time>2017-02-25T10:00:32Z</time>
      </trkpt>
      <trkpt lat="43.52915" lon="5.94901">
        <ele>290.46</ele>
        <time>2017-02-25T10:00:45Z</time>
      </trkpt>
      <trkpt lat="43.52926" lon="5.94901">
        <ele>290.94</ele>
        <time>2017-02-25T10:00:57Z</time>
      </trkpt>
      <trkpt lat="43.52938" lon="5.94902">
        <ele>291.42</ele>
        <time>2017-02-25T10:01:11Z</time>
      </trkpt>
      <trkpt lat="43.52949" lon="5.94904">
        <ele>291.9</ele>
        <time>2017-02-25T10:01:24Z</time>
      </trkpt>
      <trkpt lat="43.52963" lon="5.94903">
        <ele>291.9</ele>
        <time>2017-02-25T10:01:37Z</time>
      </trkpt>
      <trkpt lat="43.52979" lon="5.94903">
        <ele>291.9</ele>
        <time>2017-02-25T10:01:52Z</time>
      </trkpt>
      <trkpt lat="43.52986" lon="5.94904">
        <ele>290.94</ele>
        <time>2017-02-25T10:02:01Z</time>
      </trkpt>
      <trkpt lat="43.53005" lon="5.94908">
        <ele>289.97</ele>
        <time>2017-02-25T10:02:19Z</time>
      </trkpt>
      <trkpt lat="43.53021" lon="5.94905">
        <ele>289.49</ele>
        <time>2017-02-25T10:02:35Z</time>
      </trkpt>
      <trkpt lat="43.53032" lon="5.94898">
        <ele>289.49</ele>
        <time>2017-02-25T10:02:50Z</time>
      </trkpt>
      <trkpt lat="43.53033" lon="5.94899">
        <ele>289.49</ele>
        <time>2017-02-25T10:03:03Z</time>
      </trkpt>
      <trkpt lat="43.53033" lon="5.94901">
        <ele>289.49</ele>
        <time>2017-02-25T10:03:23Z</time>
      </trkpt>
      <trkpt lat="43.53034" lon="5.94901">
        <ele>290.94</ele>
        <time>2017-02-25T10:03:27Z</time>
      </trkpt>
      <trkpt lat="43.5304" lon="5.94913">
        <ele>291.9</ele>
        <time>2017-02-25T10:03:41Z</time>
      </trkpt>
      <trkpt lat="43.53047" lon="5.9493">
        <ele>292.86</ele>
        <time>2017-02-25T10:03:57Z</time>
      </trkpt>
      <trkpt lat="43.53052" lon="5.94943">
        <ele>293.82</ele>
        <time>2017-02-25T10:04:10Z</time>
      </trkpt>
      <trkpt lat="43.53054" lon="5.94958">
        <ele>294.78</ele>
        <time>2017-02-25T10:04:23Z</time>
      </trkpt>
      <trkpt lat="43.53058" lon="5.94974">
        <ele>295.26</ele>
        <time>2017-02-25T10:04:38Z</time>
      </trkpt>
      <trkpt lat="43.53059" lon="5.94982">
        <ele>295.74</ele>
        <time>2017-02-25T10:04:44Z</time>
      </trkpt>
      <trkpt lat="43.53064" lon="5.95002">
        <ele>296.22</ele>
        <time>2017-02-25T10:04:59Z</time>
      </trkpt>
      <trkpt lat="43.53073" lon="5.95019">
        <ele>297.18</ele>
        <time>2017-02-25T10:05:14Z</time>
      </trkpt>
      <trkpt lat="43.53084" lon="5.95034">
        <ele>297.67</ele>
        <time>2017-02-25T10:05:29Z</time>
      </trkpt>
      <trkpt lat="43.53097" lon="5.95044">
        <ele>298.63</ele>
        <time>2017-02-25T10:05:43Z</time>
      </trkpt>
      <trkpt lat="43.53107" lon="5.95053">
        <ele>300.07</ele>
        <time>2017-02-25T10:05:56Z</time>
      </trkpt>
      <trkpt lat="43.53119" lon="5.95062">
        <ele>301.03</ele>
        <time>2017-02-25T10:06:10Z</time>
      </trkpt>
      <trkpt lat="43.53127" lon="5.95068">
        <ele>301.51</ele>
        <time>2017-02-25T10:06:18Z</time>
      </trkpt>
      <trkpt lat="43.5314" lon="5.95081">
        <ele>301.99</ele>
        <time>2017-02-25T10:06:35Z</time>
      </trkpt>
      <trkpt lat="43.53158" lon="5.95096">
        <ele>302.95</ele>
        <time>2017-02-25T10:06:52Z</time>
      </trkpt>
      <trkpt lat="43.53168" lon="5.95103">
        <ele>303.91</ele>
        <time>2017-02-25T10:07:06Z</time>
      </trkpt>
      <trkpt lat="43.53179" lon="5.95112">
        <ele>304.88</ele>
        <time>2017-02-25T10:07:18Z</time>
      </trkpt>
      <trkpt lat="43.53189" lon="5.95123">
        <ele>305.36</ele>
        <time>2017-02-25T10:07:31Z</time>
      </trkpt>
      <trkpt lat="43.53194" lon="5.9513">
        <ele>305.84</ele>
        <time>2017-02-25T10:07:38Z</time>
      </trkpt>
      <trkpt lat="43.53203" lon="5.95148">
        <ele>306.8</ele>
        <time>2017-02-25T10:07:53Z</time>
      </trkpt>
      <trkpt lat="43.53209" lon="5.95162">
        <ele>307.28</ele>
        <time>2017-02-25T10:08:05Z</time>
      </trkpt>
      <trkpt lat="43.53217" lon="5.95176">
        <ele>308.24</ele>
        <time>2017-02-25T10:08:17Z</time>
      </trkpt>
      <trkpt lat="43.53226" lon="5.95194">
        <ele>309.2</ele>
        <time>2017-02-25T10:08:32Z</time>
      </trkpt>
      <trkpt lat="43.53238" lon="5.95215">
        <ele>309.68</ele>
        <time>2017-02-25T10:08:48Z</time>
      </trkpt>
      <trkpt lat="43.53242" lon="5.95221">
        <ele>309.68</ele>
        <time>2017-02-25T10:08:53Z</time>
      </trkpt>
      <trkpt lat="43.5325" lon="5.95238">
        <ele>310.16</ele>
        <time>2017-02-25T10:09:07Z</time>
      </trkpt>
      <trkpt lat="43.53262" lon="5.95255">
        <ele>311.12</ele>
        <time>2017-02-25T10:09:24Z</time>
      </trkpt>
      <trkpt lat="43.53274" lon="5.95263">
        <ele>311.12</ele>
        <time>2017-02-25T10:09:37Z</time>
      </trkpt>
      <trkpt lat="43.5329" lon="5.95272">
        <ele>311.6</ele>
        <time>2017-02-25T10:09:54Z</time>
      </trkpt>
      <trkpt lat="43.53304" lon="5.95283">
        <ele>311.6</ele>
        <time>2017-02-25T10:10:10Z</time>
      </trkpt>
      <trkpt lat="43.53316" lon="5.95294">
        <ele>312.09</ele>
        <time>2017-02-25T10:10:25Z</time>
      </trkpt>
      <trkpt lat="43.53331" lon="5.95308">
        <ele>312.57</ele>
        <time>2017-02-25T10:10:42Z</time>
      </trkpt>
      <trkpt lat="43.53341" lon="5.95317">
        <ele>312.57</ele>
        <time>2017-02-25T10:10:55Z</time>
      </trkpt>
      <trkpt lat="43.53354" lon="5.95319">
        <ele>313.05</ele>
        <time>2017-02-25T10:11:09Z</time>
      </trkpt>
      <trkpt lat="43.53368" lon="5.95323">
        <ele>313.53</ele>
        <time>2017-02-25T10:11:23Z</time>
      </trkpt>
      <trkpt lat="43.5338" lon="5.95328">
        <ele>314.49</ele>
        <time>2017-02-25T10:11:36Z</time>
      </trkpt>
      <trkpt lat="43.53391" lon="5.95334">
        <ele>315.93</ele>
        <time>2017-02-25T10:11:50Z</time>
      </trkpt>
      <trkpt lat="43.53404" lon="5.95342">
        <ele>316.89</ele>
        <time>2017-02-25T10:12:03Z</time>
      </trkpt>
      <trkpt lat="43.5342" lon="5.95351">
        <ele>317.37</ele>
        <time>2017-02-25T10:12:19Z</time>
      </trkpt>
      <trkpt lat="43.53436" lon="5.95364">
        <ele>317.85</ele>
        <time>2017-02-25T10:12:36Z</time>
      </trkpt>
      <trkpt lat="43.53441" lon="5.95368">
        <ele>317.85</ele>
        <time>2017-02-25T10:12:41Z</time>
      </trkpt>
      <trkpt lat="43.53455" lon="5.95378">
        <ele>318.33</ele>
        <time>2017-02-25T10:12:56Z</time>
      </trkpt>
      <trkpt lat="43.53473" lon="5.95386">
        <ele>319.3</ele>
        <time>2017-02-25T10:13:14Z</time>
      </trkpt>
      <trkpt lat="43.5349" lon="5.95395">
        <ele>319.3</ele>
        <time>2017-02-25T10:13:31Z</time>
      </trkpt>
      <trkpt lat="43.53509" lon="5.95404">
        <ele>319.3</ele>
        <time>2017-02-25T10:13:48Z</time>
      </trkpt>
      <trkpt lat="43.53522" lon="5.95407">
        <ele>319.3</ele>
        <time>2017-02-25T10:14:03Z</time>
      </trkpt>
      <trkpt lat="43.53537" lon="5.95412">
        <ele>319.78</ele>
        <time>2017-02-25T10:14:19Z</time>
      </trkpt>
      <trkpt lat="43.53553" lon="5.95414">
        <ele>320.26</ele>
        <time>2017-02-25T10:14:36Z</time>
      </trkpt>
      <trkpt lat="43.53564" lon="5.9542">
        <ele>320.26</ele>
        <time>2017-02-25T10:14:49Z</time>
      </trkpt>
      <trkpt lat="43.53581" lon="5.95426">
        <ele>320.74</ele>
        <time>2017-02-25T10:15:05Z</time>
      </trkpt>
      <trkpt lat="43.53594" lon="5.95428">
        <ele>320.74</ele>
        <time>2017-02-25T10:15:19Z</time>
      </trkpt>
      <trkpt lat="43.53611" lon="5.95433">
        <ele>321.7</ele>
        <time>2017-02-25T10:15:36Z</time>
      </trkpt>
      <trkpt lat="43.53632" lon="5.95435">
        <ele>320.74</ele>
        <time>2017-02-25T10:15:56Z</time>
      </trkpt>
      <trkpt lat="43.53638" lon="5.95427">
        <ele>319.78</ele>
        <time>2017-02-25T10:22:51Z</time>
      </trkpt>
      <trkpt lat="43.53636" lon="5.95427">
        <ele>319.78</ele>
        <time>2017-02-25T10:23:15Z</time>
      </trkpt>
      <trkpt lat="43.53638" lon="5.95422">
        <ele>319.78</ele>
        <time>2017-02-25T10:23:39Z</time>
      </trkpt>
      <trkpt lat="43.53649" lon="5.95405">
        <ele>318.81</ele>
        <time>2017-02-25T10:23:55Z</time>
      </trkpt>
      <trkpt lat="43.53664" lon="5.95385">
        <ele>318.81</ele>
        <time>2017-02-25T10:24:16Z</time>
      </trkpt>
      <trkpt lat="43.53667" lon="5.95375">
        <ele>320.26</ele>
        <time>2017-02-25T10:24:25Z</time>
      </trkpt>
      <trkpt lat="43.53671" lon="5.95357">
        <ele>321.7</ele>
        <time>2017-02-25T10:24:42Z</time>
      </trkpt>
      <trkpt lat="43.53673" lon="5.9535">
        <ele>321.7</ele>
        <time>2017-02-25T10:24:46Z</time>
      </trkpt>
      <trkpt lat="43.53674" lon="5.95326">
        <ele>322.18</ele>
        <time>2017-02-25T10:25:03Z</time>
      </trkpt>
      <trkpt lat="43.53676" lon="5.95303">
        <ele>323.14</ele>
        <time>2017-02-25T10:25:19Z</time>
      </trkpt>
      <trkpt lat="43.53682" lon="5.95288">
        <ele>323.62</ele>
        <time>2017-02-25T10:25:35Z</time>
      </trkpt>
      <trkpt lat="43.53684" lon="5.95283">
        <ele>324.1</ele>
        <time>2017-02-25T10:25:46Z</time>
      </trkpt>
      <trkpt lat="43.53692" lon="5.95268">
        <ele>324.58</ele>
        <time>2017-02-25T10:25:59Z</time>
      </trkpt>
      <trkpt lat="43.53698" lon="5.9525">
        <ele>325.06</ele>
        <time>2017-02-25T10:26:14Z</time>
      </trkpt>
      <trkpt lat="43.53703" lon="5.95233">
        <ele>325.54</ele>
        <time>2017-02-25T10:26:29Z</time>
      </trkpt>
      <trkpt lat="43.53708" lon="5.95216">
        <ele>326.5</ele>
        <time>2017-02-25T10:26:45Z</time>
      </trkpt>
      <trkpt lat="43.53712" lon="5.952">
        <ele>327.47</ele>
        <time>2017-02-25T10:26:59Z</time>
      </trkpt>
      <trkpt lat="43.53717" lon="5.95184">
        <ele>328.43</ele>
        <time>2017-02-25T10:27:13Z</time>
      </trkpt>
      <trkpt lat="43.53722" lon="5.95168">
        <ele>328.91</ele>
        <time>2017-02-25T10:27:27Z</time>
      </trkpt>
      <trkpt lat="43.53728" lon="5.95153">
        <ele>329.39</ele>
        <time>2017-02-25T10:27:41Z</time>
      </trkpt>
      <trkpt lat="43.53737" lon="5.95138">
        <ele>329.87</ele>
        <time>2017-02-25T10:27:56Z</time>
      </trkpt>
      <trkpt lat="43.53746" lon="5.95122">
        <ele>329.87</ele>
        <time>2017-02-25T10:28:10Z</time>
      </trkpt>
      <trkpt lat="43.53754" lon="5.95111">
        <ele>330.35</ele>
        <time>2017-02-25T10:32:35Z</time>
      </trkpt>
      <trkpt lat="43.53759" lon="5.95102">
        <ele>330.35</ele>
        <time>2017-02-25T10:32:52Z</time>
      </trkpt>
      <trkpt lat="43.53759" lon="5.95102">
        <ele>330.35</ele>
        <time>2017-02-25T10:32:53Z</time>
      </trkpt>
      <trkpt lat="43.53761" lon="5.95094">
        <ele>330.35</ele>
        <time>2017-02-25T10:33:09Z</time>
      </trkpt>
      <trkpt lat="43.53763" lon="5.95093">
        <ele>330.35</ele>
        <time>2017-02-25T10:33:12Z</time>
      </trkpt>
      <trkpt lat="43.53777" lon="5.95075">
        <ele>330.35</ele>
        <time>2017-02-25T10:33:33Z</time>
      </trkpt>
      <trkpt lat="43.5379" lon="5.95064">
        <ele>331.31</ele>
        <time>2017-02-25T10:33:48Z</time>
      </trkpt>
      <trkpt lat="43.53809" lon="5.95046">
        <ele>331.79</ele>
        <time>2017-02-25T10:34:07Z</time>
      </trkpt>
      <trkpt lat="43.5382" lon="5.95031">
        <ele>331.79</ele>
        <time>2017-02-25T10:34:22Z</time>
      </trkpt>
      <trkpt lat="43.53832" lon="5.95012">
        <ele>330.35</ele>
        <time>2017-02-25T10:34:38Z</time>
      </trkpt>
      <trkpt lat="43.53846" lon="5.94994">
        <ele>329.87</ele>
        <time>2017-02-25T10:34:55Z</time>
      </trkpt>
      <trkpt lat="43.53854" lon="5.94983">
        <ele>329.87</ele>
        <time>2017-02-25T10:35:05Z</time>
      </trkpt>
      <trkpt lat="43.53868" lon="5.94965">
        <ele>329.39</ele>
        <time>2017-02-25T10:35:22Z</time>
      </trkpt>
      <trkpt lat="43.53879" lon="5.94949">
        <ele>329.39</ele>
        <time>2017-02-25T10:35:37Z</time>
      </trkpt>
      <trkpt lat="43.53891" lon="5.94934">
        <ele>329.39</ele>
        <time>2017-02-25T10:35:52Z</time>
      </trkpt>
      <trkpt lat="43.53904" lon="5.94915">
        <ele>329.87</ele>
        <time>2017-02-25T10:36:10Z</time>
      </trkpt>
      <trkpt lat="43.53918" lon="5.94899">
        <ele>329.87</ele>
        <time>2017-02-25T10:36:28Z</time>
      </trkpt>
      <trkpt lat="43.53929" lon="5.94882">
        <ele>329.87</ele>
        <time>2017-02-25T10:36:44Z</time>
      </trkpt>
      <trkpt lat="43.53941" lon="5.94867">
        <ele>329.87</ele>
        <time>2017-02-25T10:37:00Z</time>
      </trkpt>
      <trkpt lat="43.53953" lon="5.94852">
        <ele>329.87</ele>
        <time>2017-02-25T10:37:16Z</time>
      </trkpt>
      <trkpt lat="43.53964" lon="5.94838">
        <ele>329.87</ele>
        <time>2017-02-25T10:37:30Z</time>
      </trkpt>
      <trkpt lat="43.53974" lon="5.94824">
        <ele>330.83</ele>
        <time>2017-02-25T10:37:44Z</time>
      </trkpt>
      <trkpt lat="43.53986" lon="5.94807">
        <ele>330.83</ele>
        <time>2017-02-25T10:38:01Z</time>
      </trkpt>
      <trkpt lat="43.53989" lon="5.94804">
        <ele>331.31</ele>
        <time>2017-02-25T10:38:20Z</time>
      </trkpt>
      <trkpt lat="43.53993" lon="5.94804">
        <ele>331.31</ele>
        <time>2017-02-25T10:38:34Z</time>
      </trkpt>
      <trkpt lat="43.53995" lon="5.94807">
        <ele>331.31</ele>
        <time>2017-02-25T10:38:37Z</time>
      </trkpt>
      <trkpt lat="43.54" lon="5.94814">
        <ele>331.79</ele>
        <time>2017-02-25T10:38:43Z</time>
      </trkpt>
      <trkpt lat="43.54015" lon="5.94826">
        <ele>333.23</ele>
        <time>2017-02-25T10:38:58Z</time>
      </trkpt>
      <trkpt lat="43.54015" lon="5.9483">
        <ele>333.71</ele>
        <time>2017-02-25T10:39:07Z</time>
      </trkpt>
      <trkpt lat="43.5401" lon="5.94838">
        <ele>333.71</ele>
        <time>2017-02-25T10:39:13Z</time>
      </trkpt>
      <trkpt lat="43.54001" lon="5.94852">
        <ele>333.71</ele>
        <time>2017-02-25T10:39:28Z</time>
      </trkpt>
      <trkpt lat="43.54003" lon="5.94861">
        <ele>333.71</ele>
        <time>2017-02-25T10:39:39Z</time>
      </trkpt>
      <trkpt lat="43.54007" lon="5.94868">
        <ele>332.27</ele>
        <time>2017-02-25T10:39:46Z</time>
      </trkpt>
      <trkpt lat="43.54013" lon="5.94866">
        <ele>331.79</ele>
        <time>2017-02-25T10:39:59Z</time>
      </trkpt>
      <trkpt lat="43.54015" lon="5.94865">
        <ele>331.31</ele>
        <time>2017-02-25T10:40:15Z</time>
      </trkpt>
      <trkpt lat="43.5402" lon="5.94868">
        <ele>329.87</ele>
        <time>2017-02-25T10:40:25Z</time>
      </trkpt>
      <trkpt lat="43.54027" lon="5.94867">
        <ele>327.95</ele>
        <time>2017-02-25T10:40:38Z</time>
      </trkpt>
      <trkpt lat="43.54032" lon="5.94876">
        <ele>325.06</ele>
        <time>2017-02-25T10:40:52Z</time>
      </trkpt>
      <trkpt lat="43.54033" lon="5.94887">
        <ele>324.1</ele>
        <time>2017-02-25T10:41:06Z</time>
      </trkpt>
      <trkpt lat="43.5404" lon="5.94887">
        <ele>322.66</ele>
        <time>2017-02-25T10:41:19Z</time>
      </trkpt>
      <trkpt lat="43.5404" lon="5.94889">
        <ele>322.18</ele>
        <time>2017-02-25T10:41:35Z</time>
      </trkpt>
      <trkpt lat="43.5404" lon="5.94892">
        <ele>322.18</ele>
        <time>2017-02-25T10:41:57Z</time>
      </trkpt>
      <trkpt lat="43.54044" lon="5.94897">
        <ele>320.74</ele>
        <time>2017-02-25T10:42:11Z</time>
      </trkpt>
      <trkpt lat="43.54042" lon="5.94909">
        <ele>319.78</ele>
        <time>2017-02-25T10:42:28Z</time>
      </trkpt>
      <trkpt lat="43.54044" lon="5.94919">
        <ele>318.33</ele>
        <time>2017-02-25T10:42:43Z</time>
      </trkpt>
      <trkpt lat="43.54052" lon="5.94932">
        <ele>317.85</ele>
        <time>2017-02-25T10:42:58Z</time>
      </trkpt>
      <trkpt lat="43.5406" lon="5.94938">
        <ele>316.89</ele>
        <time>2017-02-25T10:43:12Z</time>
      </trkpt>
      <trkpt lat="43.5406" lon="5.94936">
        <ele>316.89</ele>
        <time>2017-02-25T10:43:33Z</time>
      </trkpt>
      <trkpt lat="43.54061" lon="5.94937">
        <ele>316.41</ele>
        <time>2017-02-25T10:43:57Z</time>
      </trkpt>
      <trkpt lat="43.54061" lon="5.94935">
        <ele>316.41</ele>
        <time>2017-02-25T10:44:17Z</time>
      </trkpt>
      <trkpt lat="43.54061" lon="5.94936">
        <ele>316.41</ele>
        <time>2017-02-25T10:44:36Z</time>
      </trkpt>
      <trkpt lat="43.54062" lon="5.94937">
        <ele>316.41</ele>
        <time>2017-02-25T10:44:50Z</time>
      </trkpt>
      <trkpt lat="43.54073" lon="5.94943">
        <ele>315.45</ele>
        <time>2017-02-25T10:45:01Z</time>
      </trkpt>
      <trkpt lat="43.54088" lon="5.94946">
        <ele>314.01</ele>
        <time>2017-02-25T10:45:17Z</time>
      </trkpt>
      <trkpt lat="43.541" lon="5.94944">
        <ele>313.05</ele>
        <time>2017-02-25T10:45:28Z</time>
      </trkpt>
      <trkpt lat="43.54103" lon="5.94946">
        <ele>313.05</ele>
        <time>2017-02-25T10:45:32Z</time>
      </trkpt>
      <trkpt lat="43.54105" lon="5.94949">
        <ele>312.57</ele>
        <time>2017-02-25T10:45:35Z</time>
      </trkpt>
      <trkpt lat="43.54108" lon="5.94952">
        <ele>312.57</ele>
        <time>2017-02-25T10:45:39Z</time>
      </trkpt>
      <trkpt lat="43.54112" lon="5.9495">
        <ele>312.57</ele>
        <time>2017-02-25T10:45:43Z</time>
      </trkpt>
      <trkpt lat="43.54113" lon="5.94949">
        <ele>312.57</ele>
        <time>2017-02-25T10:45:45Z</time>
      </trkpt>
      <trkpt lat="43.54118" lon="5.94948">
        <ele>312.57</ele>
        <time>2017-02-25T10:45:50Z</time>
      </trkpt>
      <trkpt lat="43.54133" lon="5.94946">
        <ele>311.6</ele>
        <time>2017-02-25T10:46:05Z</time>
      </trkpt>
      <trkpt lat="43.54148" lon="5.94939">
        <ele>311.12</ele>
        <time>2017-02-25T10:46:21Z</time>
      </trkpt>
      <trkpt lat="43.54159" lon="5.94944">
        <ele>310.64</ele>
        <time>2017-02-25T10:46:35Z</time>
      </trkpt>
      <trkpt lat="43.54163" lon="5.94944">
        <ele>309.68</ele>
        <time>2017-02-25T10:46:46Z</time>
      </trkpt>
      <trkpt lat="43.54164" lon="5.94942">
        <ele>309.68</ele>
        <time>2017-02-25T10:47:00Z</time>
      </trkpt>
      <trkpt lat="43.54165" lon="5.94945">
        <ele>309.68</ele>
        <time>2017-02-25T10:47:30Z</time>
      </trkpt>
      <trkpt lat="43.54168" lon="5.94934">
        <ele>309.68</ele>
        <time>2017-02-25T10:47:43Z</time>
      </trkpt>
      <trkpt lat="43.54169" lon="5.94929">
        <ele>309.68</ele>
        <time>2017-02-25T10:47:47Z</time>
      </trkpt>
      <trkpt lat="43.54178" lon="5.94911">
        <ele>309.68</ele>
        <time>2017-02-25T10:48:03Z</time>
      </trkpt>
      <trkpt lat="43.54185" lon="5.94897">
        <ele>309.68</ele>
        <time>2017-02-25T10:48:16Z</time>
      </trkpt>
      <trkpt lat="43.54192" lon="5.94879">
        <ele>309.2</ele>
        <time>2017-02-25T10:48:31Z</time>
      </trkpt>
      <trkpt lat="43.54201" lon="5.94861">
        <ele>309.2</ele>
        <time>2017-02-25T10:48:48Z</time>
      </trkpt>
      <trkpt lat="43.54209" lon="5.94844">
        <ele>309.2</ele>
        <time>2017-02-25T10:49:03Z</time>
      </trkpt>
      <trkpt lat="43.54213" lon="5.94833">
        <ele>309.68</ele>
        <time>2017-02-25T10:49:18Z</time>
      </trkpt>
      <trkpt lat="43.54214" lon="5.94831">
        <ele>309.68</ele>
        <time>2017-02-25T10:49:37Z</time>
      </trkpt>
      <trkpt lat="43.54221" lon="5.94816">
        <ele>309.68</ele>
        <time>2017-02-25T10:49:51Z</time>
      </trkpt>
      <trkpt lat="43.54226" lon="5.94807">
        <ele>310.64</ele>
        <time>2017-02-25T10:49:59Z</time>
      </trkpt>
      <trkpt lat="43.54234" lon="5.94791">
        <ele>311.12</ele>
        <time>2017-02-25T10:50:13Z</time>
      </trkpt>
      <trkpt lat="43.5424" lon="5.94776">
        <ele>312.09</ele>
        <time>2017-02-25T10:50:26Z</time>
      </trkpt>
      <trkpt lat="43.54247" lon="5.9476">
        <ele>312.57</ele>
        <time>2017-02-25T10:50:40Z</time>
      </trkpt>
      <trkpt lat="43.54256" lon="5.94742">
        <ele>313.05</ele>
        <time>2017-02-25T10:50:57Z</time>
      </trkpt>
      <trkpt lat="43.54261" lon="5.94731">
        <ele>314.49</ele>
        <time>2017-02-25T10:51:09Z</time>
      </trkpt>
      <trkpt lat="43.54269" lon="5.94716">
        <ele>314.49</ele>
        <time>2017-02-25T10:51:23Z</time>
      </trkpt>
      <trkpt lat="43.54277" lon="5.94694">
        <ele>314.49</ele>
        <time>2017-02-25T10:51:40Z</time>
      </trkpt>
      <trkpt lat="43.54285" lon="5.94676">
        <ele>313.53</ele>
        <time>2017-02-25T10:51:54Z</time>
      </trkpt>
      <trkpt lat="43.54294" lon="5.94655">
        <ele>313.05</ele>
        <time>2017-02-25T10:52:10Z</time>
      </trkpt>
      <trkpt lat="43.54301" lon="5.94636">
        <ele>313.05</ele>
        <time>2017-02-25T10:52:24Z</time>
      </trkpt>
      <trkpt lat="43.5431" lon="5.94618">
        <ele>312.57</ele>
        <time>2017-02-25T10:52:38Z</time>
      </trkpt>
      <trkpt lat="43.54314" lon="5.94607">
        <ele>312.57</ele>
        <time>2017-02-25T10:52:46Z</time>
      </trkpt>
      <trkpt lat="43.54318" lon="5.94603">
        <ele>312.57</ele>
        <time>2017-02-25T10:53:02Z</time>
      </trkpt>
      <trkpt lat="43.54318" lon="5.94602">
        <ele>312.57</ele>
        <time>2017-02-25T10:53:26Z</time>
      </trkpt>
      <trkpt lat="43.54323" lon="5.9459">
        <ele>312.57</ele>
        <time>2017-02-25T10:53:41Z</time>
      </trkpt>
      <trkpt lat="43.54331" lon="5.94573">
        <ele>313.05</ele>
        <time>2017-02-25T10:53:55Z</time>
      </trkpt>
      <trkpt lat="43.54333" lon="5.9457">
        <ele>313.05</ele>
        <time>2017-02-25T10:53:58Z</time>
      </trkpt>
      <trkpt lat="43.5434" lon="5.94554">
        <ele>313.05</ele>
        <time>2017-02-25T10:54:12Z</time>
      </trkpt>
      <trkpt lat="43.54348" lon="5.94534">
        <ele>313.05</ele>
        <time>2017-02-25T10:54:27Z</time>
      </trkpt>
      <trkpt lat="43.54355" lon="5.94516">
        <ele>313.05</ele>
        <time>2017-02-25T10:54:41Z</time>
      </trkpt>
      <trkpt lat="43.54365" lon="5.94494">
        <ele>313.05</ele>
        <time>2017-02-25T10:54:59Z</time>
      </trkpt>
      <trkpt lat="43.54372" lon="5.94478">
        <ele>313.05</ele>
        <time>2017-02-25T10:55:12Z</time>
      </trkpt>
      <trkpt lat="43.54378" lon="5.94465">
        <ele>313.05</ele>
        <time>2017-02-25T10:55:22Z</time>
      </trkpt>
      <trkpt lat="43.54386" lon="5.94446">
        <ele>313.05</ele>
        <time>2017-02-25T10:55:37Z</time>
      </trkpt>
      <trkpt lat="43.54392" lon="5.94436">
        <ele>313.05</ele>
        <time>2017-02-25T10:55:46Z</time>
      </trkpt>
      <trkpt lat="43.54399" lon="5.94419">
        <ele>313.05</ele>
        <time>2017-02-25T10:56:00Z</time>
      </trkpt>
      <trkpt lat="43.54404" lon="5.94408">
        <ele>314.01</ele>
        <time>2017-02-25T10:56:10Z</time>
      </trkpt>
      <trkpt lat="43.54411" lon="5.94391">
        <ele>314.49</ele>
        <time>2017-02-25T10:56:24Z</time>
      </trkpt>
      <trkpt lat="43.54418" lon="5.94376">
        <ele>314.97</ele>
        <time>2017-02-25T10:56:37Z</time>
      </trkpt>
      <trkpt lat="43.54427" lon="5.94359">
        <ele>315.45</ele>
        <time>2017-02-25T10:56:52Z</time>
      </trkpt>
      <trkpt lat="43.54435" lon="5.94343">
        <ele>316.41</ele>
        <time>2017-02-25T10:57:06Z</time>
      </trkpt>
      <trkpt lat="43.54436" lon="5.9434">
        <ele>316.89</ele>
        <time>2017-02-25T10:57:09Z</time>
      </trkpt>
      <trkpt lat="43.54445" lon="5.94321">
        <ele>316.89</ele>
        <time>2017-02-25T10:57:24Z</time>
      </trkpt>
      <trkpt lat="43.54448" lon="5.94306">
        <ele>317.37</ele>
        <time>2017-02-25T10:59:14Z</time>
      </trkpt>
      <trkpt lat="43.54437" lon="5.9429">
        <ele>317.85</ele>
        <time>2017-02-25T10:59:29Z</time>
      </trkpt>
      <trkpt lat="43.54433" lon="5.94268">
        <ele>318.81</ele>
        <time>2017-02-25T11:00:11Z</time>
      </trkpt>
      <trkpt lat="43.54432" lon="5.94267">
        <ele>318.81</ele>
        <time>2017-02-25T11:00:12Z</time>
      </trkpt>
      <trkpt lat="43.54418" lon="5.94258">
        <ele>317.85</ele>
        <time>2017-02-25T11:00:25Z</time>
      </trkpt>
      <trkpt lat="43.544" lon="5.94242">
        <ele>317.85</ele>
        <time>2017-02-25T11:00:43Z</time>
      </trkpt>
      <trkpt lat="43.54384" lon="5.94228">
        <ele>317.85</ele>
        <time>2017-02-25T11:01:00Z</time>
      </trkpt>
      <trkpt lat="43.5437" lon="5.94215">
        <ele>317.37</ele>
        <time>2017-02-25T11:01:15Z</time>
      </trkpt>
      <trkpt lat="43.54369" lon="5.94214">
        <ele>317.37</ele>
        <time>2017-02-25T11:01:16Z</time>
      </trkpt>
      <trkpt lat="43.54367" lon="5.94209">
        <ele>317.37</ele>
        <time>2017-02-25T11:01:21Z</time>
      </trkpt>
      <trkpt lat="43.54377" lon="5.94193">
        <ele>317.37</ele>
        <time>2017-02-25T11:01:35Z</time>
      </trkpt>
      <trkpt lat="43.54381" lon="5.94186">
        <ele>318.33</ele>
        <time>2017-02-25T11:01:42Z</time>
      </trkpt>
      <trkpt lat="43.54389" lon="5.94173">
        <ele>319.78</ele>
        <time>2017-02-25T11:01:54Z</time>
      </trkpt>
      <trkpt lat="43.54393" lon="5.94155">
        <ele>320.74</ele>
        <time>2017-02-25T11:02:08Z</time>
      </trkpt>
      <trkpt lat="43.54391" lon="5.94136">
        <ele>322.18</ele>
        <time>2017-02-25T11:02:22Z</time>
      </trkpt>
      <trkpt lat="43.5439" lon="5.94116">
        <ele>322.66</ele>
        <time>2017-02-25T11:02:36Z</time>
      </trkpt>
      <trkpt lat="43.54388" lon="5.94109">
        <ele>323.14</ele>
        <time>2017-02-25T11:02:52Z</time>
      </trkpt>
      <trkpt lat="43.54384" lon="5.94088">
        <ele>324.58</ele>
        <time>2017-02-25T11:03:08Z</time>
      </trkpt>
      <trkpt lat="43.54384" lon="5.94068">
        <ele>325.06</ele>
        <time>2017-02-25T11:03:22Z</time>
      </trkpt>
      <trkpt lat="43.54384" lon="5.94044">
        <ele>326.02</ele>
        <time>2017-02-25T11:03:38Z</time>
      </trkpt>
      <trkpt lat="43.54384" lon="5.9402">
        <ele>327.47</ele>
        <time>2017-02-25T11:03:56Z</time>
      </trkpt>
      <trkpt lat="43.54385" lon="5.93998">
        <ele>328.91</ele>
        <time>2017-02-25T11:04:12Z</time>
      </trkpt>
      <trkpt lat="43.54384" lon="5.93979">
        <ele>329.87</ele>
        <time>2017-02-25T11:04:27Z</time>
      </trkpt>
      <trkpt lat="43.54388" lon="5.93963">
        <ele>330.35</ele>
        <time>2017-02-25T11:04:40Z</time>
      </trkpt>
      <trkpt lat="43.5439" lon="5.93958">
        <ele>330.35</ele>
        <time>2017-02-25T11:04:44Z</time>
      </trkpt>
      <trkpt lat="43.54396" lon="5.93948">
        <ele>330.83</ele>
        <time>2017-02-25T11:04:53Z</time>
      </trkpt>
      <trkpt lat="43.54406" lon="5.9393">
        <ele>331.79</ele>
        <time>2017-02-25T11:05:10Z</time>
      </trkpt>
      <trkpt lat="43.54416" lon="5.93914">
        <ele>332.75</ele>
        <time>2017-02-25T11:05:26Z</time>
      </trkpt>
      <trkpt lat="43.54425" lon="5.93899">
        <ele>333.23</ele>
        <time>2017-02-25T11:05:40Z</time>
      </trkpt>
      <trkpt lat="43.54433" lon="5.93887">
        <ele>335.16</ele>
        <time>2017-02-25T11:05:54Z</time>
      </trkpt>
      <trkpt lat="43.54436" lon="5.93884">
        <ele>335.16</ele>
        <time>2017-02-25T11:05:59Z</time>
      </trkpt>
      <trkpt lat="43.54445" lon="5.93881">
        <ele>336.12</ele>
        <time>2017-02-25T11:08:38Z</time>
      </trkpt>
      <trkpt lat="43.54446" lon="5.93871">
        <ele>336.12</ele>
        <time>2017-02-25T11:08:47Z</time>
      </trkpt>
      <trkpt lat="43.54455" lon="5.93854">
        <ele>338.04</ele>
        <time>2017-02-25T11:09:02Z</time>
      </trkpt>
      <trkpt lat="43.54465" lon="5.93844">
        <ele>339.48</ele>
        <time>2017-02-25T11:09:16Z</time>
      </trkpt>
      <trkpt lat="43.54479" lon="5.93838">
        <ele>340.92</ele>
        <time>2017-02-25T11:09:30Z</time>
      </trkpt>
      <trkpt lat="43.54491" lon="5.93836">
        <ele>342.37</ele>
        <time>2017-02-25T11:09:43Z</time>
      </trkpt>
      <trkpt lat="43.54502" lon="5.93833">
        <ele>344.77</ele>
        <time>2017-02-25T11:09:57Z</time>
      </trkpt>
      <trkpt lat="43.54512" lon="5.9383">
        <ele>346.21</ele>
        <time>2017-02-25T11:10:09Z</time>
      </trkpt>
      <trkpt lat="43.54524" lon="5.93828">
        <ele>348.13</ele>
        <time>2017-02-25T11:10:22Z</time>
      </trkpt>
      <trkpt lat="43.54534" lon="5.93824">
        <ele>349.58</ele>
        <time>2017-02-25T11:10:35Z</time>
      </trkpt>
      <trkpt lat="43.54543" lon="5.9382">
        <ele>351.02</ele>
        <time>2017-02-25T11:10:46Z</time>
      </trkpt>
      <trkpt lat="43.54555" lon="5.93819">
        <ele>352.94</ele>
        <time>2017-02-25T11:11:00Z</time>
      </trkpt>
      <trkpt lat="43.54566" lon="5.93826">
        <ele>355.83</ele>
        <time>2017-02-25T11:11:13Z</time>
      </trkpt>
      <trkpt lat="43.54569" lon="5.9383">
        <ele>356.31</ele>
        <time>2017-02-25T11:11:18Z</time>
      </trkpt>
      <trkpt lat="43.54578" lon="5.93843">
        <ele>358.23</ele>
        <time>2017-02-25T11:11:31Z</time>
      </trkpt>
      <trkpt lat="43.54581" lon="5.93847">
        <ele>358.71</ele>
        <time>2017-02-25T11:11:37Z</time>
      </trkpt>
      <trkpt lat="43.54593" lon="5.93849">
        <ele>359.19</ele>
        <time>2017-02-25T11:11:51Z</time>
      </trkpt>
      <trkpt lat="43.54598" lon="5.93848">
        <ele>359.67</ele>
        <time>2017-02-25T11:11:57Z</time>
      </trkpt>
      <trkpt lat="43.54609" lon="5.93844">
        <ele>361.11</ele>
        <time>2017-02-25T11:12:10Z</time>
      </trkpt>
      <trkpt lat="43.54621" lon="5.93839">
        <ele>363.04</ele>
        <time>2017-02-25T11:12:24Z</time>
      </trkpt>
      <trkpt lat="43.5463" lon="5.93835">
        <ele>364</ele>
        <time>2017-02-25T11:12:36Z</time>
      </trkpt>
      <trkpt lat="43.5464" lon="5.9383">
        <ele>364.96</ele>
        <time>2017-02-25T11:12:48Z</time>
      </trkpt>
      <trkpt lat="43.5465" lon="5.93826">
        <ele>365.92</ele>
        <time>2017-02-25T11:13:01Z</time>
      </trkpt>
      <trkpt lat="43.54655" lon="5.93827">
        <ele>366.4</ele>
        <time>2017-02-25T11:13:15Z</time>
      </trkpt>
      <trkpt lat="43.54668" lon="5.93824">
        <ele>367.84</ele>
        <time>2017-02-25T11:13:30Z</time>
      </trkpt>
      <trkpt lat="43.54683" lon="5.93819">
        <ele>369.28</ele>
        <time>2017-02-25T11:13:45Z</time>
      </trkpt>
      <trkpt lat="43.54698" lon="5.93812">
        <ele>370.73</ele>
        <time>2017-02-25T11:14:01Z</time>
      </trkpt>
      <trkpt lat="43.54707" lon="5.93801">
        <ele>371.21</ele>
        <time>2017-02-25T11:14:14Z</time>
      </trkpt>
      <trkpt lat="43.54719" lon="5.93787">
        <ele>372.65</ele>
        <time>2017-02-25T11:14:29Z</time>
      </trkpt>
      <trkpt lat="43.54727" lon="5.93774">
        <ele>373.61</ele>
        <time>2017-02-25T11:14:42Z</time>
      </trkpt>
      <trkpt lat="43.5473" lon="5.93762">
        <ele>375.05</ele>
        <time>2017-02-25T11:14:56Z</time>
      </trkpt>
      <trkpt lat="43.54732" lon="5.93762">
        <ele>375.53</ele>
        <time>2017-02-25T11:15:08Z</time>
      </trkpt>
      <trkpt lat="43.54733" lon="5.93763">
        <ele>375.05</ele>
        <time>2017-02-25T11:15:27Z</time>
      </trkpt>
      <trkpt lat="43.54733" lon="5.93763">
        <ele>375.05</ele>
        <time>2017-02-25T11:15:49Z</time>
      </trkpt>
      <trkpt lat="43.54733" lon="5.93762">
        <ele>375.05</ele>
        <time>2017-02-25T11:16:19Z</time>
      </trkpt>
      <trkpt lat="43.54733" lon="5.93763">
        <ele>375.05</ele>
        <time>2017-02-25T11:16:49Z</time>
      </trkpt>
      <trkpt lat="43.54732" lon="5.93764">
        <ele>375.05</ele>
        <time>2017-02-25T11:17:04Z</time>
      </trkpt>
      <trkpt lat="43.54732" lon="5.93761">
        <ele>375.05</ele>
        <time>2017-02-25T11:17:26Z</time>
      </trkpt>
      <trkpt lat="43.54732" lon="5.93755">
        <ele>375.53</ele>
        <time>2017-02-25T11:17:41Z</time>
      </trkpt>
      <trkpt lat="43.54735" lon="5.9374">
        <ele>377.45</ele>
        <time>2017-02-25T11:17:55Z</time>
      </trkpt>
      <trkpt lat="43.54738" lon="5.93725">
        <ele>378.9</ele>
        <time>2017-02-25T11:18:08Z</time>
      </trkpt>
      <trkpt lat="43.54736" lon="5.93708">
        <ele>381.3</ele>
        <time>2017-02-25T11:18:23Z</time>
      </trkpt>
      <trkpt lat="43.54733" lon="5.93693">
        <ele>383.22</ele>
        <time>2017-02-25T11:18:37Z</time>
      </trkpt>
      <trkpt lat="43.54732" lon="5.93678">
        <ele>384.66</ele>
        <time>2017-02-25T11:18:51Z</time>
      </trkpt>
      <trkpt lat="43.54734" lon="5.93664">
        <ele>386.11</ele>
        <time>2017-02-25T11:19:05Z</time>
      </trkpt>
      <trkpt lat="43.54738" lon="5.93649">
        <ele>388.03</ele>
        <time>2017-02-25T11:19:20Z</time>
      </trkpt>
      <trkpt lat="43.54741" lon="5.93634">
        <ele>389.95</ele>
        <time>2017-02-25T11:19:34Z</time>
      </trkpt>
      <trkpt lat="43.54744" lon="5.93625">
        <ele>390.43</ele>
        <time>2017-02-25T11:19:42Z</time>
      </trkpt>
      <trkpt lat="43.5475" lon="5.93609">
        <ele>392.36</ele>
        <time>2017-02-25T11:19:57Z</time>
      </trkpt>
      <trkpt lat="43.54757" lon="5.93594">
        <ele>393.8</ele>
        <time>2017-02-25T11:20:11Z</time>
      </trkpt>
      <trkpt lat="43.54764" lon="5.93579">
        <ele>396.2</ele>
        <time>2017-02-25T11:20:25Z</time>
      </trkpt>
      <trkpt lat="43.5477" lon="5.93564">
        <ele>397.64</ele>
        <time>2017-02-25T11:20:39Z</time>
      </trkpt>
      <trkpt lat="43.54775" lon="5.93548">
        <ele>400.05</ele>
        <time>2017-02-25T11:20:54Z</time>
      </trkpt>
      <trkpt lat="43.54778" lon="5.93533">
        <ele>402.45</ele>
        <time>2017-02-25T11:21:08Z</time>
      </trkpt>
      <trkpt lat="43.54782" lon="5.93519">
        <ele>403.89</ele>
        <time>2017-02-25T11:21:22Z</time>
      </trkpt>
      <trkpt lat="43.54783" lon="5.93511">
        <ele>405.33</ele>
        <time>2017-02-25T11:21:35Z</time>
      </trkpt>
      <trkpt lat="43.54783" lon="5.93509">
        <ele>405.81</ele>
        <time>2017-02-25T11:21:56Z</time>
      </trkpt>
      <trkpt lat="43.54787" lon="5.93494">
        <ele>406.77</ele>
        <time>2017-02-25T11:22:10Z</time>
      </trkpt>
      <trkpt lat="43.54791" lon="5.9348">
        <ele>409.18</ele>
        <time>2017-02-25T11:22:23Z</time>
      </trkpt>
      <trkpt lat="43.54793" lon="5.93471">
        <ele>410.62</ele>
        <time>2017-02-25T11:22:34Z</time>
      </trkpt>
      <trkpt lat="43.54794" lon="5.93455">
        <ele>412.06</ele>
        <time>2017-02-25T11:22:46Z</time>
      </trkpt>
      <trkpt lat="43.54796" lon="5.9344">
        <ele>413.98</ele>
        <time>2017-02-25T11:23:00Z</time>
      </trkpt>
      <trkpt lat="43.54797" lon="5.93425">
        <ele>415.43</ele>
        <time>2017-02-25T11:23:12Z</time>
      </trkpt>
      <trkpt lat="43.548" lon="5.93409">
        <ele>417.83</ele>
        <time>2017-02-25T11:23:27Z</time>
      </trkpt>
      <trkpt lat="43.54804" lon="5.93397">
        <ele>419.75</ele>
        <time>2017-02-25T11:23:40Z</time>
      </trkpt>
      <trkpt lat="43.54805" lon="5.93391">
        <ele>421.68</ele>
        <time>2017-02-25T11:24:03Z</time>
      </trkpt>
      <trkpt lat="43.54806" lon="5.9339">
        <ele>421.68</ele>
        <time>2017-02-25T11:24:20Z</time>
      </trkpt>
      <trkpt lat="43.54806" lon="5.9339">
        <ele>421.68</ele>
        <time>2017-02-25T11:24:47Z</time>
      </trkpt>
      <trkpt lat="43.54806" lon="5.9339">
        <ele>421.68</ele>
        <time>2017-02-25T11:25:14Z</time>
      </trkpt>
      <trkpt lat="43.54805" lon="5.93392">
        <ele>421.68</ele>
        <time>2017-02-25T11:25:42Z</time>
      </trkpt>
      <trkpt lat="43.54805" lon="5.93392">
        <ele>422.16</ele>
        <time>2017-02-25T11:26:07Z</time>
      </trkpt>
      <trkpt lat="43.54805" lon="5.93392">
        <ele>422.16</ele>
        <time>2017-02-25T11:26:29Z</time>
      </trkpt>
      <trkpt lat="43.54812" lon="5.93388">
        <ele>422.16</ele>
        <time>2017-02-25T11:26:42Z</time>
      </trkpt>
      <trkpt lat="43.54813" lon="5.93386">
        <ele>422.16</ele>
        <time>2017-02-25T11:26:44Z</time>
      </trkpt>
      <trkpt lat="43.54817" lon="5.93385">
        <ele>422.64</ele>
        <time>2017-02-25T11:26:48Z</time>
      </trkpt>
      <trkpt lat="43.54826" lon="5.93388">
        <ele>423.12</ele>
        <time>2017-02-25T11:27:00Z</time>
      </trkpt>
      <trkpt lat="43.54839" lon="5.93393">
        <ele>425.04</ele>
        <time>2017-02-25T11:27:14Z</time>
      </trkpt>
      <trkpt lat="43.5485" lon="5.93396">
        <ele>426.96</ele>
        <time>2017-02-25T11:27:27Z</time>
      </trkpt>
      <trkpt lat="43.54855" lon="5.93395">
        <ele>427.44</ele>
        <time>2017-02-25T11:27:33Z</time>
      </trkpt>
      <trkpt lat="43.54863" lon="5.93384">
        <ele>428.4</ele>
        <time>2017-02-25T11:27:45Z</time>
      </trkpt>
      <trkpt lat="43.5487" lon="5.93374">
        <ele>429.85</ele>
        <time>2017-02-25T11:27:57Z</time>
      </trkpt>
      <trkpt lat="43.54875" lon="5.93367">
        <ele>430.33</ele>
        <time>2017-02-25T11:28:04Z</time>
      </trkpt>
      <trkpt lat="43.54882" lon="5.93353">
        <ele>431.77</ele>
        <time>2017-02-25T11:28:17Z</time>
      </trkpt>
      <trkpt lat="43.54892" lon="5.93336">
        <ele>432.73</ele>
        <time>2017-02-25T11:28:34Z</time>
      </trkpt>
      <trkpt lat="43.549" lon="5.93328">
        <ele>433.21</ele>
        <time>2017-02-25T11:28:45Z</time>
      </trkpt>
      <trkpt lat="43.54912" lon="5.93316">
        <ele>433.69</ele>
        <time>2017-02-25T11:28:59Z</time>
      </trkpt>
      <trkpt lat="43.54914" lon="5.93313">
        <ele>433.69</ele>
        <time>2017-02-25T11:29:02Z</time>
      </trkpt>
      <trkpt lat="43.54919" lon="5.93301">
        <ele>434.17</ele>
        <time>2017-02-25T11:29:12Z</time>
      </trkpt>
      <trkpt lat="43.54925" lon="5.93279">
        <ele>434.65</ele>
        <time>2017-02-25T11:29:28Z</time>
      </trkpt>
      <trkpt lat="43.54931" lon="5.9326">
        <ele>434.65</ele>
        <time>2017-02-25T11:29:42Z</time>
      </trkpt>
      <trkpt lat="43.54938" lon="5.93244">
        <ele>435.13</ele>
        <time>2017-02-25T11:29:57Z</time>
      </trkpt>
      <trkpt lat="43.54944" lon="5.93228">
        <ele>435.13</ele>
        <time>2017-02-25T11:30:12Z</time>
      </trkpt>
      <trkpt lat="43.54947" lon="5.93205">
        <ele>433.21</ele>
        <time>2017-02-25T11:30:30Z</time>
      </trkpt>
      <trkpt lat="43.54948" lon="5.9319">
        <ele>433.21</ele>
        <time>2017-02-25T11:30:41Z</time>
      </trkpt>
      <trkpt lat="43.54951" lon="5.93167">
        <ele>432.73</ele>
        <time>2017-02-25T11:30:56Z</time>
      </trkpt>
      <trkpt lat="43.54957" lon="5.9314">
        <ele>432.25</ele>
        <time>2017-02-25T11:31:15Z</time>
      </trkpt>
      <trkpt lat="43.54959" lon="5.93134">
        <ele>432.25</ele>
        <time>2017-02-25T11:31:19Z</time>
      </trkpt>
      <trkpt lat="43.5497" lon="5.93119">
        <ele>432.25</ele>
        <time>2017-02-25T11:31:35Z</time>
      </trkpt>
      <trkpt lat="43.54984" lon="5.93105">
        <ele>432.25</ele>
        <time>2017-02-25T11:31:52Z</time>
      </trkpt>
      <trkpt lat="43.54996" lon="5.93094">
        <ele>432.25</ele>
        <time>2017-02-25T11:32:06Z</time>
      </trkpt>
      <trkpt lat="43.55009" lon="5.9308">
        <ele>432.25</ele>
        <time>2017-02-25T11:32:20Z</time>
      </trkpt>
      <trkpt lat="43.55017" lon="5.93062">
        <ele>432.25</ele>
        <time>2017-02-25T11:32:34Z</time>
      </trkpt>
      <trkpt lat="43.55022" lon="5.93042">
        <ele>433.21</ele>
        <time>2017-02-25T11:32:49Z</time>
      </trkpt>
      <trkpt lat="43.55027" lon="5.93023">
        <ele>433.21</ele>
        <time>2017-02-25T11:33:03Z</time>
      </trkpt>
      <trkpt lat="43.5503" lon="5.93004">
        <ele>433.21</ele>
        <time>2017-02-25T11:33:17Z</time>
      </trkpt>
      <trkpt lat="43.55031" lon="5.93002">
        <ele>433.21</ele>
        <time>2017-02-25T11:33:19Z</time>
      </trkpt>
      <trkpt lat="43.55031" lon="5.92999">
        <ele>433.21</ele>
        <time>2017-02-25T11:33:21Z</time>
      </trkpt>
      <trkpt lat="43.55031" lon="5.92992">
        <ele>433.69</ele>
        <time>2017-02-25T11:33:26Z</time>
      </trkpt>
      <trkpt lat="43.55035" lon="5.92979">
        <ele>433.69</ele>
        <time>2017-02-25T11:33:36Z</time>
      </trkpt>
      <trkpt lat="43.55038" lon="5.92968">
        <ele>433.21</ele>
        <time>2017-02-25T11:33:44Z</time>
      </trkpt>
      <trkpt lat="43.55041" lon="5.92962">
        <ele>433.21</ele>
        <time>2017-02-25T11:33:49Z</time>
      </trkpt>
      <trkpt lat="43.55047" lon="5.92941">
        <ele>433.21</ele>
        <time>2017-02-25T11:34:05Z</time>
      </trkpt>
      <trkpt lat="43.55056" lon="5.92918">
        <ele>433.21</ele>
        <time>2017-02-25T11:34:22Z</time>
      </trkpt>
      <trkpt lat="43.55064" lon="5.929">
        <ele>433.21</ele>
        <time>2017-02-25T11:34:38Z</time>
      </trkpt>
      <trkpt lat="43.55068" lon="5.9289">
        <ele>433.69</ele>
        <time>2017-02-25T11:34:46Z</time>
      </trkpt>
      <trkpt lat="43.55071" lon="5.92874">
        <ele>433.69</ele>
        <time>2017-02-25T11:34:59Z</time>
      </trkpt>
      <trkpt lat="43.55074" lon="5.92853">
        <ele>434.17</ele>
        <time>2017-02-25T11:35:15Z</time>
      </trkpt>
      <trkpt lat="43.55077" lon="5.92831">
        <ele>434.65</ele>
        <time>2017-02-25T11:35:30Z</time>
      </trkpt>
      <trkpt lat="43.55082" lon="5.92813">
        <ele>434.65</ele>
        <time>2017-02-25T11:35:44Z</time>
      </trkpt>
      <trkpt lat="43.55089" lon="5.92794">
        <ele>435.13</ele>
        <time>2017-02-25T11:35:58Z</time>
      </trkpt>
      <trkpt lat="43.55096" lon="5.92774">
        <ele>435.13</ele>
        <time>2017-02-25T11:36:14Z</time>
      </trkpt>
      <trkpt lat="43.55101" lon="5.92758">
        <ele>435.13</ele>
        <time>2017-02-25T11:36:29Z</time>
      </trkpt>
      <trkpt lat="43.55101" lon="5.92754">
        <ele>435.13</ele>
        <time>2017-02-25T11:36:50Z</time>
      </trkpt>
      <trkpt lat="43.55101" lon="5.92754">
        <ele>435.61</ele>
        <time>2017-02-25T11:37:11Z</time>
      </trkpt>
      <trkpt lat="43.55101" lon="5.92753">
        <ele>435.61</ele>
        <time>2017-02-25T11:37:28Z</time>
      </trkpt>
      <trkpt lat="43.55103" lon="5.92752">
        <ele>435.61</ele>
        <time>2017-02-25T11:37:55Z</time>
      </trkpt>
      <trkpt lat="43.55103" lon="5.92753">
        <ele>435.61</ele>
        <time>2017-02-25T11:38:22Z</time>
      </trkpt>
      <trkpt lat="43.55104" lon="5.92751">
        <ele>435.61</ele>
        <time>2017-02-25T11:38:39Z</time>
      </trkpt>
      <trkpt lat="43.55105" lon="5.92751">
        <ele>435.61</ele>
        <time>2017-02-25T11:39:09Z</time>
      </trkpt>
      <trkpt lat="43.55109" lon="5.92744">
        <ele>435.61</ele>
        <time>2017-02-25T11:39:30Z</time>
      </trkpt>
      <trkpt lat="43.55111" lon="5.92735">
        <ele>435.61</ele>
        <time>2017-02-25T11:39:37Z</time>
      </trkpt>
      <trkpt lat="43.55112" lon="5.92731">
        <ele>435.61</ele>
        <time>2017-02-25T11:39:40Z</time>
      </trkpt>
      <trkpt lat="43.55113" lon="5.92717">
        <ele>435.61</ele>
        <time>2017-02-25T11:39:50Z</time>
      </trkpt>
      <trkpt lat="43.55118" lon="5.92694">
        <ele>435.61</ele>
        <time>2017-02-25T11:40:06Z</time>
      </trkpt>
      <trkpt lat="43.55124" lon="5.92674">
        <ele>435.61</ele>
        <time>2017-02-25T11:40:21Z</time>
      </trkpt>
      <trkpt lat="43.55126" lon="5.92661">
        <ele>435.61</ele>
        <time>2017-02-25T11:40:30Z</time>
      </trkpt>
      <trkpt lat="43.55128" lon="5.92645">
        <ele>435.61</ele>
        <time>2017-02-25T11:40:41Z</time>
      </trkpt>
      <trkpt lat="43.55129" lon="5.92613">
        <ele>435.61</ele>
        <time>2017-02-25T11:41:01Z</time>
      </trkpt>
      <trkpt lat="43.55127" lon="5.92589">
        <ele>435.61</ele>
        <time>2017-02-25T11:41:17Z</time>
      </trkpt>
      <trkpt lat="43.55122" lon="5.92563">
        <ele>435.61</ele>
        <time>2017-02-25T11:41:35Z</time>
      </trkpt>
      <trkpt lat="43.5512" lon="5.92543">
        <ele>436.1</ele>
        <time>2017-02-25T11:41:49Z</time>
      </trkpt>
      <trkpt lat="43.55116" lon="5.92544">
        <ele>436.58</ele>
        <time>2017-02-25T11:42:01Z</time>
      </trkpt>
      <trkpt lat="43.55118" lon="5.92536">
        <ele>436.58</ele>
        <time>2017-02-25T11:42:15Z</time>
      </trkpt>
      <trkpt lat="43.55119" lon="5.92536">
        <ele>436.58</ele>
        <time>2017-02-25T11:42:31Z</time>
      </trkpt>
      <trkpt lat="43.55119" lon="5.92536">
        <ele>436.58</ele>
        <time>2017-02-25T11:42:48Z</time>
      </trkpt>
      <trkpt lat="43.55118" lon="5.92533">
        <ele>436.58</ele>
        <time>2017-02-25T11:42:59Z</time>
      </trkpt>
      <trkpt lat="43.55123" lon="5.9251">
        <ele>437.06</ele>
        <time>2017-02-25T11:43:15Z</time>
      </trkpt>
      <trkpt lat="43.5513" lon="5.92483">
        <ele>436.58</ele>
        <time>2017-02-25T11:43:32Z</time>
      </trkpt>
      <trkpt lat="43.55139" lon="5.92458">
        <ele>436.58</ele>
        <time>2017-02-25T11:43:48Z</time>
      </trkpt>
      <trkpt lat="43.5515" lon="5.92432">
        <ele>437.06</ele>
        <time>2017-02-25T11:44:06Z</time>
      </trkpt>
      <trkpt lat="43.55156" lon="5.92409">
        <ele>437.06</ele>
        <time>2017-02-25T11:44:21Z</time>
      </trkpt>
      <trkpt lat="43.55164" lon="5.92386">
        <ele>437.06</ele>
        <time>2017-02-25T11:44:37Z</time>
      </trkpt>
      <trkpt lat="43.55172" lon="5.92362">
        <ele>437.54</ele>
        <time>2017-02-25T11:44:54Z</time>
      </trkpt>
      <trkpt lat="43.55177" lon="5.92342">
        <ele>437.54</ele>
        <time>2017-02-25T11:45:09Z</time>
      </trkpt>
      <trkpt lat="43.55181" lon="5.92326">
        <ele>437.54</ele>
        <time>2017-02-25T11:45:20Z</time>
      </trkpt>
      <trkpt lat="43.55182" lon="5.92315">
        <ele>437.54</ele>
        <time>2017-02-25T11:45:27Z</time>
      </trkpt>
      <trkpt lat="43.55186" lon="5.92295">
        <ele>437.54</ele>
        <time>2017-02-25T11:45:41Z</time>
      </trkpt>
      <trkpt lat="43.5519" lon="5.92274">
        <ele>437.54</ele>
        <time>2017-02-25T11:45:56Z</time>
      </trkpt>
      <trkpt lat="43.55196" lon="5.92258">
        <ele>438.02</ele>
        <time>2017-02-25T11:46:07Z</time>
      </trkpt>
      <trkpt lat="43.55206" lon="5.92235">
        <ele>438.02</ele>
        <time>2017-02-25T11:46:24Z</time>
      </trkpt>
      <trkpt lat="43.55216" lon="5.92214">
        <ele>438.5</ele>
        <time>2017-02-25T11:46:40Z</time>
      </trkpt>
      <trkpt lat="43.55225" lon="5.92191">
        <ele>438.5</ele>
        <time>2017-02-25T11:46:57Z</time>
      </trkpt>
      <trkpt lat="43.55234" lon="5.92174">
        <ele>439.46</ele>
        <time>2017-02-25T11:47:12Z</time>
      </trkpt>
      <trkpt lat="43.55242" lon="5.92154">
        <ele>440.42</ele>
        <time>2017-02-25T11:47:28Z</time>
      </trkpt>
      <trkpt lat="43.5525" lon="5.92135">
        <ele>439.94</ele>
        <time>2017-02-25T11:47:43Z</time>
      </trkpt>
      <trkpt lat="43.55258" lon="5.92116">
        <ele>439.94</ele>
        <time>2017-02-25T11:47:58Z</time>
      </trkpt>
      <trkpt lat="43.55267" lon="5.92098">
        <ele>440.42</ele>
        <time>2017-02-25T11:48:12Z</time>
      </trkpt>
      <trkpt lat="43.55274" lon="5.9208">
        <ele>440.9</ele>
        <time>2017-02-25T11:48:26Z</time>
      </trkpt>
      <trkpt lat="43.55282" lon="5.92062">
        <ele>441.38</ele>
        <time>2017-02-25T11:48:40Z</time>
      </trkpt>
      <trkpt lat="43.55298" lon="5.92044">
        <ele>441.38</ele>
        <time>2017-02-25T11:48:58Z</time>
      </trkpt>
      <trkpt lat="43.55312" lon="5.92032">
        <ele>441.86</ele>
        <time>2017-02-25T11:49:13Z</time>
      </trkpt>
      <trkpt lat="43.55328" lon="5.9202">
        <ele>441.86</ele>
        <time>2017-02-25T11:49:29Z</time>
      </trkpt>
      <trkpt lat="43.55337" lon="5.92015">
        <ele>441.86</ele>
        <time>2017-02-25T11:49:38Z</time>
      </trkpt>
      <trkpt lat="43.55357" lon="5.92001">
        <ele>441.86</ele>
        <time>2017-02-25T11:49:58Z</time>
      </trkpt>
      <trkpt lat="43.55372" lon="5.91987">
        <ele>441.86</ele>
        <time>2017-02-25T11:50:15Z</time>
      </trkpt>
      <trkpt lat="43.55381" lon="5.91977">
        <ele>441.86</ele>
        <time>2017-02-25T11:50:25Z</time>
      </trkpt>
      <trkpt lat="43.55395" lon="5.91957">
        <ele>441.86</ele>
        <time>2017-02-25T11:50:43Z</time>
      </trkpt>
      <trkpt lat="43.55407" lon="5.91938">
        <ele>441.86</ele>
        <time>2017-02-25T11:50:59Z</time>
      </trkpt>
      <trkpt lat="43.55416" lon="5.91922">
        <ele>441.86</ele>
        <time>2017-02-25T11:51:13Z</time>
      </trkpt>
      <trkpt lat="43.55425" lon="5.91907">
        <ele>441.86</ele>
        <time>2017-02-25T11:51:26Z</time>
      </trkpt>
      <trkpt lat="43.55431" lon="5.91882">
        <ele>441.86</ele>
        <time>2017-02-25T11:51:43Z</time>
      </trkpt>
      <trkpt lat="43.55427" lon="5.91858">
        <ele>441.86</ele>
        <time>2017-02-25T11:52:00Z</time>
      </trkpt>
      <trkpt lat="43.55424" lon="5.91833">
        <ele>441.86</ele>
        <time>2017-02-25T11:52:16Z</time>
      </trkpt>
      <trkpt lat="43.55423" lon="5.91813">
        <ele>441.86</ele>
        <time>2017-02-25T11:52:28Z</time>
      </trkpt>
      <trkpt lat="43.55425" lon="5.91796">
        <ele>441.86</ele>
        <time>2017-02-25T11:52:40Z</time>
      </trkpt>
      <trkpt lat="43.55425" lon="5.91784">
        <ele>441.38</ele>
        <time>2017-02-25T11:52:47Z</time>
      </trkpt>
      <trkpt lat="43.55428" lon="5.91757">
        <ele>441.38</ele>
        <time>2017-02-25T11:53:04Z</time>
      </trkpt>
      <trkpt lat="43.5543" lon="5.91734">
        <ele>441.38</ele>
        <time>2017-02-25T11:53:18Z</time>
      </trkpt>
      <trkpt lat="43.55431" lon="5.91711">
        <ele>441.38</ele>
        <time>2017-02-25T11:53:33Z</time>
      </trkpt>
      <trkpt lat="43.55431" lon="5.91685">
        <ele>440.42</ele>
        <time>2017-02-25T11:53:49Z</time>
      </trkpt>
      <trkpt lat="43.55429" lon="5.91661">
        <ele>439.94</ele>
        <time>2017-02-25T11:54:05Z</time>
      </trkpt>
      <trkpt lat="43.55426" lon="5.91644">
        <ele>439.94</ele>
        <time>2017-02-25T11:54:18Z</time>
      </trkpt>
      <trkpt lat="43.55422" lon="5.91621">
        <ele>439.94</ele>
        <time>2017-02-25T11:54:34Z</time>
      </trkpt>
      <trkpt lat="43.55422" lon="5.91607">
        <ele>439.94</ele>
        <time>2017-02-25T11:54:42Z</time>
      </trkpt>
      <trkpt lat="43.55423" lon="5.91597">
        <ele>439.94</ele>
        <time>2017-02-25T11:54:47Z</time>
      </trkpt>
      <trkpt lat="43.5543" lon="5.91576">
        <ele>439.94</ele>
        <time>2017-02-25T11:55:02Z</time>
      </trkpt>
      <trkpt lat="43.55437" lon="5.91552">
        <ele>439.94</ele>
        <time>2017-02-25T11:55:18Z</time>
      </trkpt>
      <trkpt lat="43.55442" lon="5.91533">
        <ele>439.94</ele>
        <time>2017-02-25T11:55:31Z</time>
      </trkpt>
      <trkpt lat="43.5545" lon="5.91513">
        <ele>440.9</ele>
        <time>2017-02-25T11:55:45Z</time>
      </trkpt>
      <trkpt lat="43.55456" lon="5.9149">
        <ele>440.9</ele>
        <time>2017-02-25T11:56:01Z</time>
      </trkpt>
      <trkpt lat="43.55458" lon="5.91483">
        <ele>440.9</ele>
        <time>2017-02-25T11:56:06Z</time>
      </trkpt>
      <trkpt lat="43.55465" lon="5.91457">
        <ele>440.9</ele>
        <time>2017-02-25T11:56:23Z</time>
      </trkpt>
      <trkpt lat="43.55474" lon="5.91436">
        <ele>440.9</ele>
        <time>2017-02-25T11:56:38Z</time>
      </trkpt>
      <trkpt lat="43.5548" lon="5.91421">
        <ele>440.9</ele>
        <time>2017-02-25T11:56:49Z</time>
      </trkpt>
      <trkpt lat="43.55489" lon="5.91401">
        <ele>439.46</ele>
        <time>2017-02-25T11:57:05Z</time>
      </trkpt>
      <trkpt lat="43.555" lon="5.91381">
        <ele>439.46</ele>
        <time>2017-02-25T11:57:21Z</time>
      </trkpt>
      <trkpt lat="43.5551" lon="5.91359">
        <ele>438.5</ele>
        <time>2017-02-25T11:57:38Z</time>
      </trkpt>
      <trkpt lat="43.55511" lon="5.9135">
        <ele>438.5</ele>
        <time>2017-02-25T11:57:44Z</time>
      </trkpt>
      <trkpt lat="43.55509" lon="5.91327">
        <ele>438.5</ele>
        <time>2017-02-25T11:57:59Z</time>
      </trkpt>
      <trkpt lat="43.55499" lon="5.91307">
        <ele>438.5</ele>
        <time>2017-02-25T11:58:15Z</time>
      </trkpt>
      <trkpt lat="43.55487" lon="5.91292">
        <ele>439.46</ele>
        <time>2017-02-25T11:58:33Z</time>
      </trkpt>
      <trkpt lat="43.55472" lon="5.91282">
        <ele>440.42</ele>
        <time>2017-02-25T11:58:50Z</time>
      </trkpt>
      <trkpt lat="43.55458" lon="5.91274">
        <ele>440.42</ele>
        <time>2017-02-25T11:59:06Z</time>
      </trkpt>
      <trkpt lat="43.55451" lon="5.91271">
        <ele>440.42</ele>
        <time>2017-02-25T11:59:18Z</time>
      </trkpt>
      <trkpt lat="43.55446" lon="5.9127">
        <ele>440.42</ele>
        <time>2017-02-25T11:59:22Z</time>
      </trkpt>
      <trkpt lat="43.55429" lon="5.9126">
        <ele>438.5</ele>
        <time>2017-02-25T11:59:40Z</time>
      </trkpt>
      <trkpt lat="43.55423" lon="5.91255">
        <ele>438.02</ele>
        <time>2017-02-25T11:59:47Z</time>
      </trkpt>
      <trkpt lat="43.55417" lon="5.91243">
        <ele>437.06</ele>
        <time>2017-02-25T12:00:02Z</time>
      </trkpt>
      <trkpt lat="43.55419" lon="5.91237">
        <ele>437.54</ele>
        <time>2017-02-25T12:03:28Z</time>
      </trkpt>
      <trkpt lat="43.55416" lon="5.91231">
        <ele>437.54</ele>
        <time>2017-02-25T12:03:36Z</time>
      </trkpt>
      <trkpt lat="43.55395" lon="5.91217">
        <ele>437.06</ele>
        <time>2017-02-25T12:03:56Z</time>
      </trkpt>
      <trkpt lat="43.55379" lon="5.91203">
        <ele>437.06</ele>
        <time>2017-02-25T12:04:12Z</time>
      </trkpt>
      <trkpt lat="43.55365" lon="5.91185">
        <ele>437.54</ele>
        <time>2017-02-25T12:04:29Z</time>
      </trkpt>
      <trkpt lat="43.55361" lon="5.91178">
        <ele>440.42</ele>
        <time>2017-02-25T12:58:17Z</time>
      </trkpt>
      <trkpt lat="43.55362" lon="5.91178">
        <ele>441.86</ele>
        <time>2017-02-25T12:58:28Z</time>
      </trkpt>
      <trkpt lat="43.55355" lon="5.91171">
        <ele>441.38</ele>
        <time>2017-02-25T12:58:42Z</time>
      </trkpt>
      <trkpt lat="43.55345" lon="5.91159">
        <ele>441.86</ele>
        <time>2017-02-25T12:58:55Z</time>
      </trkpt>
      <trkpt lat="43.55335" lon="5.91148">
        <ele>442.82</ele>
        <time>2017-02-25T12:59:10Z</time>
      </trkpt>
      <trkpt lat="43.55325" lon="5.91138">
        <ele>443.79</ele>
        <time>2017-02-25T12:59:24Z</time>
      </trkpt>
      <trkpt lat="43.55319" lon="5.91133">
        <ele>444.75</ele>
        <time>2017-02-25T12:59:31Z</time>
      </trkpt>
      <trkpt lat="43.55306" lon="5.91125">
        <ele>445.71</ele>
        <time>2017-02-25T12:59:46Z</time>
      </trkpt>
      <trkpt lat="43.553" lon="5.91119">
        <ele>446.19</ele>
        <time>2017-02-25T12:59:54Z</time>
      </trkpt>
      <trkpt lat="43.55293" lon="5.91109">
        <ele>446.67</ele>
        <time>2017-02-25T13:00:05Z</time>
      </trkpt>
      <trkpt lat="43.5528" lon="5.91096">
        <ele>447.15</ele>
        <time>2017-02-25T13:00:21Z</time>
      </trkpt>
      <trkpt lat="43.55268" lon="5.91084">
        <ele>448.11</ele>
        <time>2017-02-25T13:00:35Z</time>
      </trkpt>
      <trkpt lat="43.55259" lon="5.9107">
        <ele>448.11</ele>
        <time>2017-02-25T13:00:48Z</time>
      </trkpt>
      <trkpt lat="43.55255" lon="5.91065">
        <ele>447.63</ele>
        <time>2017-02-25T13:00:53Z</time>
      </trkpt>
      <trkpt lat="43.55253" lon="5.91062">
        <ele>447.63</ele>
        <time>2017-02-25T13:00:56Z</time>
      </trkpt>
      <trkpt lat="43.55242" lon="5.91053">
        <ele>447.63</ele>
        <time>2017-02-25T13:01:11Z</time>
      </trkpt>
      <trkpt lat="43.55235" lon="5.91039">
        <ele>448.59</ele>
        <time>2017-02-25T13:01:23Z</time>
      </trkpt>
      <trkpt lat="43.55227" lon="5.91025">
        <ele>449.07</ele>
        <time>2017-02-25T13:01:36Z</time>
      </trkpt>
      <trkpt lat="43.55226" lon="5.91024">
        <ele>449.07</ele>
        <time>2017-02-25T13:01:37Z</time>
      </trkpt>
      <trkpt lat="43.55213" lon="5.9101">
        <ele>449.07</ele>
        <time>2017-02-25T13:01:54Z</time>
      </trkpt>
      <trkpt lat="43.55201" lon="5.91">
        <ele>449.55</ele>
        <time>2017-02-25T13:02:08Z</time>
      </trkpt>
      <trkpt lat="43.55185" lon="5.90994">
        <ele>449.55</ele>
        <time>2017-02-25T13:02:23Z</time>
      </trkpt>
      <trkpt lat="43.5517" lon="5.90987">
        <ele>449.55</ele>
        <time>2017-02-25T13:02:38Z</time>
      </trkpt>
      <trkpt lat="43.55158" lon="5.90974">
        <ele>449.55</ele>
        <time>2017-02-25T13:02:53Z</time>
      </trkpt>
      <trkpt lat="43.55155" lon="5.90973">
        <ele>448.11</ele>
        <time>2017-02-25T13:02:56Z</time>
      </trkpt>
      <trkpt lat="43.55142" lon="5.9097">
        <ele>447.15</ele>
        <time>2017-02-25T13:03:10Z</time>
      </trkpt>
      <trkpt lat="43.55139" lon="5.90971">
        <ele>446.67</ele>
        <time>2017-02-25T13:03:13Z</time>
      </trkpt>
      <trkpt lat="43.55124" lon="5.90972">
        <ele>446.19</ele>
        <time>2017-02-25T13:03:29Z</time>
      </trkpt>
      <trkpt lat="43.55109" lon="5.9097">
        <ele>444.27</ele>
        <time>2017-02-25T13:03:45Z</time>
      </trkpt>
      <trkpt lat="43.55091" lon="5.90971">
        <ele>443.31</ele>
        <time>2017-02-25T13:04:02Z</time>
      </trkpt>
      <trkpt lat="43.55075" lon="5.90973">
        <ele>443.31</ele>
        <time>2017-02-25T13:04:17Z</time>
      </trkpt>
      <trkpt lat="43.5506" lon="5.90971">
        <ele>443.31</ele>
        <time>2017-02-25T13:04:32Z</time>
      </trkpt>
      <trkpt lat="43.55056" lon="5.9097">
        <ele>443.31</ele>
        <time>2017-02-25T13:04:35Z</time>
      </trkpt>
      <trkpt lat="43.55038" lon="5.90962">
        <ele>441.86</ele>
        <time>2017-02-25T13:04:53Z</time>
      </trkpt>
      <trkpt lat="43.55029" lon="5.90956">
        <ele>440.9</ele>
        <time>2017-02-25T13:05:03Z</time>
      </trkpt>
      <trkpt lat="43.55027" lon="5.90955">
        <ele>440.9</ele>
        <time>2017-02-25T13:05:05Z</time>
      </trkpt>
      <trkpt lat="43.55021" lon="5.90952">
        <ele>440.42</ele>
        <time>2017-02-25T13:05:10Z</time>
      </trkpt>
      <trkpt lat="43.55005" lon="5.90946">
        <ele>439.46</ele>
        <time>2017-02-25T13:05:27Z</time>
      </trkpt>
      <trkpt lat="43.54994" lon="5.90939">
        <ele>438.5</ele>
        <time>2017-02-25T13:05:38Z</time>
      </trkpt>
      <trkpt lat="43.54981" lon="5.90923">
        <ele>437.06</ele>
        <time>2017-02-25T13:05:55Z</time>
      </trkpt>
      <trkpt lat="43.54979" lon="5.90919">
        <ele>437.06</ele>
        <time>2017-02-25T13:05:58Z</time>
      </trkpt>
      <trkpt lat="43.54967" lon="5.90904">
        <ele>435.61</ele>
        <time>2017-02-25T13:06:14Z</time>
      </trkpt>
      <trkpt lat="43.5496" lon="5.90898">
        <ele>435.13</ele>
        <time>2017-02-25T13:06:21Z</time>
      </trkpt>
      <trkpt lat="43.54947" lon="5.90896">
        <ele>436.58</ele>
        <time>2017-02-25T13:06:33Z</time>
      </trkpt>
      <trkpt lat="43.54937" lon="5.90885">
        <ele>438.02</ele>
        <time>2017-02-25T13:06:46Z</time>
      </trkpt>
      <trkpt lat="43.54928" lon="5.90874">
        <ele>439.94</ele>
        <time>2017-02-25T13:06:59Z</time>
      </trkpt>
      <trkpt lat="43.54917" lon="5.90865">
        <ele>441.38</ele>
        <time>2017-02-25T13:07:12Z</time>
      </trkpt>
      <trkpt lat="43.5491" lon="5.90862">
        <ele>441.38</ele>
        <time>2017-02-25T13:07:26Z</time>
      </trkpt>
      <trkpt lat="43.54899" lon="5.90856">
        <ele>441.86</ele>
        <time>2017-02-25T13:07:40Z</time>
      </trkpt>
      <trkpt lat="43.54882" lon="5.90848">
        <ele>441.86</ele>
        <time>2017-02-25T13:07:56Z</time>
      </trkpt>
      <trkpt lat="43.54869" lon="5.9084">
        <ele>442.34</ele>
        <time>2017-02-25T13:08:10Z</time>
      </trkpt>
      <trkpt lat="43.54858" lon="5.90819">
        <ele>440.9</ele>
        <time>2017-02-25T13:08:27Z</time>
      </trkpt>
      <trkpt lat="43.54846" lon="5.90801">
        <ele>439.94</ele>
        <time>2017-02-25T13:08:45Z</time>
      </trkpt>
      <trkpt lat="43.54834" lon="5.90784">
        <ele>438.98</ele>
        <time>2017-02-25T13:09:00Z</time>
      </trkpt>
      <trkpt lat="43.54819" lon="5.9076">
        <ele>438.5</ele>
        <time>2017-02-25T13:09:20Z</time>
      </trkpt>
      <trkpt lat="43.54804" lon="5.90742">
        <ele>436.58</ele>
        <time>2017-02-25T13:09:37Z</time>
      </trkpt>
      <trkpt lat="43.54791" lon="5.90726">
        <ele>436.1</ele>
        <time>2017-02-25T13:09:53Z</time>
      </trkpt>
      <trkpt lat="43.54783" lon="5.90717">
        <ele>435.13</ele>
        <time>2017-02-25T13:10:02Z</time>
      </trkpt>
      <trkpt lat="43.54767" lon="5.90701">
        <ele>433.21</ele>
        <time>2017-02-25T13:10:20Z</time>
      </trkpt>
      <trkpt lat="43.54762" lon="5.90702">
        <ele>432.73</ele>
        <time>2017-02-25T13:10:36Z</time>
      </trkpt>
      <trkpt lat="43.54761" lon="5.90701">
        <ele>432.73</ele>
        <time>2017-02-25T13:11:04Z</time>
      </trkpt>
      <trkpt lat="43.54759" lon="5.90695">
        <ele>431.77</ele>
        <time>2017-02-25T13:11:17Z</time>
      </trkpt>
      <trkpt lat="43.54757" lon="5.90691">
        <ele>431.29</ele>
        <time>2017-02-25T13:11:49Z</time>
      </trkpt>
      <trkpt lat="43.54757" lon="5.9069">
        <ele>431.29</ele>
        <time>2017-02-25T13:12:18Z</time>
      </trkpt>
      <trkpt lat="43.54757" lon="5.90691">
        <ele>431.29</ele>
        <time>2017-02-25T13:12:38Z</time>
      </trkpt>
      <trkpt lat="43.54757" lon="5.90698">
        <ele>431.29</ele>
        <time>2017-02-25T13:12:51Z</time>
      </trkpt>
      <trkpt lat="43.54744" lon="5.90707">
        <ele>432.73</ele>
        <time>2017-02-25T13:13:05Z</time>
      </trkpt>
      <trkpt lat="43.54731" lon="5.90712">
        <ele>434.17</ele>
        <time>2017-02-25T13:13:19Z</time>
      </trkpt>
      <trkpt lat="43.54717" lon="5.90716">
        <ele>436.1</ele>
        <time>2017-02-25T13:13:35Z</time>
      </trkpt>
      <trkpt lat="43.54705" lon="5.90722">
        <ele>437.54</ele>
        <time>2017-02-25T13:13:49Z</time>
      </trkpt>
      <trkpt lat="43.54693" lon="5.90726">
        <ele>438.98</ele>
        <time>2017-02-25T13:14:04Z</time>
      </trkpt>
      <trkpt lat="43.54681" lon="5.90732">
        <ele>439.46</ele>
        <time>2017-02-25T13:14:18Z</time>
      </trkpt>
      <trkpt lat="43.54667" lon="5.90737">
        <ele>440.42</ele>
        <time>2017-02-25T13:14:33Z</time>
      </trkpt>
      <trkpt lat="43.54657" lon="5.90742">
        <ele>440.42</ele>
        <time>2017-02-25T13:14:46Z</time>
      </trkpt>
      <trkpt lat="43.54642" lon="5.90748">
        <ele>440.9</ele>
        <time>2017-02-25T13:15:03Z</time>
      </trkpt>
      <trkpt lat="43.54626" lon="5.90754">
        <ele>441.86</ele>
        <time>2017-02-25T13:15:19Z</time>
      </trkpt>
      <trkpt lat="43.54609" lon="5.90764">
        <ele>442.34</ele>
        <time>2017-02-25T13:15:36Z</time>
      </trkpt>
      <trkpt lat="43.54604" lon="5.90765">
        <ele>442.34</ele>
        <time>2017-02-25T13:15:54Z</time>
      </trkpt>
      <trkpt lat="43.54595" lon="5.90771">
        <ele>441.86</ele>
        <time>2017-02-25T13:16:15Z</time>
      </trkpt>
      <trkpt lat="43.54579" lon="5.90783">
        <ele>441.86</ele>
        <time>2017-02-25T13:16:34Z</time>
      </trkpt>
      <trkpt lat="43.54566" lon="5.90789">
        <ele>441.86</ele>
        <time>2017-02-25T13:16:47Z</time>
      </trkpt>
      <trkpt lat="43.54548" lon="5.90795">
        <ele>441.86</ele>
        <time>2017-02-25T13:17:04Z</time>
      </trkpt>
      <trkpt lat="43.54534" lon="5.90798">
        <ele>440.9</ele>
        <time>2017-02-25T13:17:19Z</time>
      </trkpt>
      <trkpt lat="43.54516" lon="5.90805">
        <ele>440.9</ele>
        <time>2017-02-25T13:17:36Z</time>
      </trkpt>
      <trkpt lat="43.54502" lon="5.90811">
        <ele>440.42</ele>
        <time>2017-02-25T13:17:51Z</time>
      </trkpt>
      <trkpt lat="43.54487" lon="5.90816">
        <ele>441.86</ele>
        <time>2017-02-25T13:18:07Z</time>
      </trkpt>
      <trkpt lat="43.54473" lon="5.90819">
        <ele>441.86</ele>
        <time>2017-02-25T13:18:22Z</time>
      </trkpt>
      <trkpt lat="43.54458" lon="5.90825">
        <ele>442.34</ele>
        <time>2017-02-25T13:18:38Z</time>
      </trkpt>
      <trkpt lat="43.54447" lon="5.90831">
        <ele>442.34</ele>
        <time>2017-02-25T13:18:53Z</time>
      </trkpt>
      <trkpt lat="43.54432" lon="5.9084">
        <ele>443.79</ele>
        <time>2017-02-25T13:19:10Z</time>
      </trkpt>
      <trkpt lat="43.54417" lon="5.90846">
        <ele>444.75</ele>
        <time>2017-02-25T13:19:25Z</time>
      </trkpt>
      <trkpt lat="43.5441" lon="5.90856">
        <ele>446.19</ele>
        <time>2017-02-25T13:19:39Z</time>
      </trkpt>
      <trkpt lat="43.54404" lon="5.90876">
        <ele>446.19</ele>
        <time>2017-02-25T13:19:55Z</time>
      </trkpt>
      <trkpt lat="43.54395" lon="5.90894">
        <ele>446.19</ele>
        <time>2017-02-25T13:20:12Z</time>
      </trkpt>
      <trkpt lat="43.54393" lon="5.90898">
        <ele>446.19</ele>
        <time>2017-02-25T13:20:15Z</time>
      </trkpt>
      <trkpt lat="43.54382" lon="5.90922">
        <ele>446.19</ele>
        <time>2017-02-25T13:20:34Z</time>
      </trkpt>
      <trkpt lat="43.54375" lon="5.90943">
        <ele>445.71</ele>
        <time>2017-02-25T13:20:51Z</time>
      </trkpt>
      <trkpt lat="43.54367" lon="5.90964">
        <ele>444.75</ele>
        <time>2017-02-25T13:21:07Z</time>
      </trkpt>
      <trkpt lat="43.54356" lon="5.90987">
        <ele>443.79</ele>
        <time>2017-02-25T13:21:24Z</time>
      </trkpt>
      <trkpt lat="43.54345" lon="5.91008">
        <ele>442.82</ele>
        <time>2017-02-25T13:21:42Z</time>
      </trkpt>
      <trkpt lat="43.54333" lon="5.91028">
        <ele>442.34</ele>
        <time>2017-02-25T13:21:59Z</time>
      </trkpt>
      <trkpt lat="43.54322" lon="5.91048">
        <ele>441.38</ele>
        <time>2017-02-25T13:22:15Z</time>
      </trkpt>
      <trkpt lat="43.54314" lon="5.91067">
        <ele>440.9</ele>
        <time>2017-02-25T13:22:30Z</time>
      </trkpt>
      <trkpt lat="43.54304" lon="5.9109">
        <ele>439.94</ele>
        <time>2017-02-25T13:22:48Z</time>
      </trkpt>
      <trkpt lat="43.54292" lon="5.91106">
        <ele>439.46</ele>
        <time>2017-02-25T13:23:04Z</time>
      </trkpt>
      <trkpt lat="43.54279" lon="5.91123">
        <ele>437.54</ele>
        <time>2017-02-25T13:23:22Z</time>
      </trkpt>
      <trkpt lat="43.54268" lon="5.91138">
        <ele>436.58</ele>
        <time>2017-02-25T13:23:37Z</time>
      </trkpt>
      <trkpt lat="43.54252" lon="5.91155">
        <ele>435.13</ele>
        <time>2017-02-25T13:23:55Z</time>
      </trkpt>
      <trkpt lat="43.54243" lon="5.91172">
        <ele>434.17</ele>
        <time>2017-02-25T13:24:12Z</time>
      </trkpt>
      <trkpt lat="43.5423" lon="5.91186">
        <ele>433.69</ele>
        <time>2017-02-25T13:24:30Z</time>
      </trkpt>
      <trkpt lat="43.54222" lon="5.91201">
        <ele>432.73</ele>
        <time>2017-02-25T13:24:46Z</time>
      </trkpt>
      <trkpt lat="43.54215" lon="5.91219">
        <ele>431.77</ele>
        <time>2017-02-25T13:25:02Z</time>
      </trkpt>
      <trkpt lat="43.54208" lon="5.91236">
        <ele>431.29</ele>
        <time>2017-02-25T13:25:17Z</time>
      </trkpt>
      <trkpt lat="43.542" lon="5.91251">
        <ele>430.33</ele>
        <time>2017-02-25T13:25:32Z</time>
      </trkpt>
      <trkpt lat="43.54191" lon="5.91267">
        <ele>430.33</ele>
        <time>2017-02-25T13:25:48Z</time>
      </trkpt>
      <trkpt lat="43.5418" lon="5.91287">
        <ele>428.89</ele>
        <time>2017-02-25T13:26:08Z</time>
      </trkpt>
      <trkpt lat="43.54171" lon="5.913">
        <ele>428.89</ele>
        <time>2017-02-25T13:26:23Z</time>
      </trkpt>
      <trkpt lat="43.54163" lon="5.91306">
        <ele>427.92</ele>
        <time>2017-02-25T13:26:36Z</time>
      </trkpt>
      <trkpt lat="43.54159" lon="5.91307">
        <ele>427.92</ele>
        <time>2017-02-25T13:26:55Z</time>
      </trkpt>
      <trkpt lat="43.54159" lon="5.91308">
        <ele>427.92</ele>
        <time>2017-02-25T13:27:21Z</time>
      </trkpt>
      <trkpt lat="43.54158" lon="5.91306">
        <ele>427.44</ele>
        <time>2017-02-25T13:27:45Z</time>
      </trkpt>
      <trkpt lat="43.54158" lon="5.91305">
        <ele>427.44</ele>
        <time>2017-02-25T13:28:19Z</time>
      </trkpt>
      <trkpt lat="43.54158" lon="5.91306">
        <ele>428.4</ele>
        <time>2017-02-25T13:28:56Z</time>
      </trkpt>
      <trkpt lat="43.54157" lon="5.91306">
        <ele>428.4</ele>
        <time>2017-02-25T13:29:18Z</time>
      </trkpt>
      <trkpt lat="43.54156" lon="5.91307">
        <ele>428.4</ele>
        <time>2017-02-25T13:29:48Z</time>
      </trkpt>
      <trkpt lat="43.54155" lon="5.91308">
        <ele>428.89</ele>
        <time>2017-02-25T13:30:17Z</time>
      </trkpt>
      <trkpt lat="43.54157" lon="5.91308">
        <ele>428.89</ele>
        <time>2017-02-25T13:30:48Z</time>
      </trkpt>
      <trkpt lat="43.54156" lon="5.91308">
        <ele>428.89</ele>
        <time>2017-02-25T13:31:16Z</time>
      </trkpt>
      <trkpt lat="43.54146" lon="5.91315">
        <ele>427.92</ele>
        <time>2017-02-25T13:31:33Z</time>
      </trkpt>
      <trkpt lat="43.54136" lon="5.91321">
        <ele>427.92</ele>
        <time>2017-02-25T13:31:49Z</time>
      </trkpt>
      <trkpt lat="43.54126" lon="5.91328">
        <ele>427.92</ele>
        <time>2017-02-25T13:32:04Z</time>
      </trkpt>
      <trkpt lat="43.54117" lon="5.91334">
        <ele>426.96</ele>
        <time>2017-02-25T13:32:20Z</time>
      </trkpt>
      <trkpt lat="43.54105" lon="5.9134">
        <ele>426.48</ele>
        <time>2017-02-25T13:32:35Z</time>
      </trkpt>
      <trkpt lat="43.54093" lon="5.91347">
        <ele>426</ele>
        <time>2017-02-25T13:32:52Z</time>
      </trkpt>
      <trkpt lat="43.54083" lon="5.91353">
        <ele>425.52</ele>
        <time>2017-02-25T13:33:05Z</time>
      </trkpt>
      <trkpt lat="43.54067" lon="5.91366">
        <ele>424.56</ele>
        <time>2017-02-25T13:33:23Z</time>
      </trkpt>
      <trkpt lat="43.54053" lon="5.91375">
        <ele>424.56</ele>
        <time>2017-02-25T13:33:39Z</time>
      </trkpt>
      <trkpt lat="43.54043" lon="5.91384">
        <ele>423.12</ele>
        <time>2017-02-25T13:33:54Z</time>
      </trkpt>
      <trkpt lat="43.54032" lon="5.91391">
        <ele>422.64</ele>
        <time>2017-02-25T13:34:10Z</time>
      </trkpt>
      <trkpt lat="43.54022" lon="5.914">
        <ele>421.68</ele>
        <time>2017-02-25T13:34:25Z</time>
      </trkpt>
      <trkpt lat="43.54011" lon="5.91406">
        <ele>421.19</ele>
        <time>2017-02-25T13:34:40Z</time>
      </trkpt>
      <trkpt lat="43.54" lon="5.91415">
        <ele>420.71</ele>
        <time>2017-02-25T13:34:55Z</time>
      </trkpt>
      <trkpt lat="43.53989" lon="5.91425">
        <ele>419.27</ele>
        <time>2017-02-25T13:35:12Z</time>
      </trkpt>
      <trkpt lat="43.53979" lon="5.91434">
        <ele>418.79</ele>
        <time>2017-02-25T13:35:26Z</time>
      </trkpt>
      <trkpt lat="43.53968" lon="5.91442">
        <ele>417.83</ele>
        <time>2017-02-25T13:35:41Z</time>
      </trkpt>
      <trkpt lat="43.53958" lon="5.91452">
        <ele>416.87</ele>
        <time>2017-02-25T13:35:55Z</time>
      </trkpt>
      <trkpt lat="43.53949" lon="5.91464">
        <ele>416.39</ele>
        <time>2017-02-25T13:36:10Z</time>
      </trkpt>
      <trkpt lat="43.53941" lon="5.91474">
        <ele>415.43</ele>
        <time>2017-02-25T13:36:26Z</time>
      </trkpt>
      <trkpt lat="43.53937" lon="5.91488">
        <ele>414.47</ele>
        <time>2017-02-25T13:36:41Z</time>
      </trkpt>
      <trkpt lat="43.53933" lon="5.91505">
        <ele>413.98</ele>
        <time>2017-02-25T13:36:58Z</time>
      </trkpt>
      <trkpt lat="43.5393" lon="5.9152">
        <ele>413.02</ele>
        <time>2017-02-25T13:37:14Z</time>
      </trkpt>
      <trkpt lat="43.53926" lon="5.91537">
        <ele>412.54</ele>
        <time>2017-02-25T13:37:29Z</time>
      </trkpt>
      <trkpt lat="43.53922" lon="5.91551">
        <ele>411.58</ele>
        <time>2017-02-25T13:37:44Z</time>
      </trkpt>
      <trkpt lat="43.53918" lon="5.91565">
        <ele>410.62</ele>
        <time>2017-02-25T13:37:59Z</time>
      </trkpt>
      <trkpt lat="43.53909" lon="5.91577">
        <ele>410.14</ele>
        <time>2017-02-25T13:38:16Z</time>
      </trkpt>
      <trkpt lat="43.53901" lon="5.91584">
        <ele>409.66</ele>
        <time>2017-02-25T13:38:31Z</time>
      </trkpt>
      <trkpt lat="43.5389" lon="5.91591">
        <ele>408.7</ele>
        <time>2017-02-25T13:38:47Z</time>
      </trkpt>
      <trkpt lat="43.53878" lon="5.91596">
        <ele>407.74</ele>
        <time>2017-02-25T13:39:02Z</time>
      </trkpt>
      <trkpt lat="43.53868" lon="5.91602">
        <ele>407.26</ele>
        <time>2017-02-25T13:39:17Z</time>
      </trkpt>
      <trkpt lat="43.53857" lon="5.91617">
        <ele>406.77</ele>
        <time>2017-02-25T13:39:33Z</time>
      </trkpt>
      <trkpt lat="43.53854" lon="5.91632">
        <ele>406.77</ele>
        <time>2017-02-25T13:39:47Z</time>
      </trkpt>
      <trkpt lat="43.53856" lon="5.91648">
        <ele>405.81</ele>
        <time>2017-02-25T13:40:01Z</time>
      </trkpt>
      <trkpt lat="43.5386" lon="5.91664">
        <ele>404.85</ele>
        <time>2017-02-25T13:40:16Z</time>
      </trkpt>
      <trkpt lat="43.53865" lon="5.9168">
        <ele>403.89</ele>
        <time>2017-02-25T13:40:32Z</time>
      </trkpt>
      <trkpt lat="43.53868" lon="5.9169">
        <ele>403.41</ele>
        <time>2017-02-25T13:40:45Z</time>
      </trkpt>
      <trkpt lat="43.53866" lon="5.91693">
        <ele>403.41</ele>
        <time>2017-02-25T13:41:15Z</time>
      </trkpt>
      <trkpt lat="43.53866" lon="5.91695">
        <ele>402.93</ele>
        <time>2017-02-25T13:41:41Z</time>
      </trkpt>
      <trkpt lat="43.53866" lon="5.91697">
        <ele>402.93</ele>
        <time>2017-02-25T13:42:12Z</time>
      </trkpt>
      <trkpt lat="43.53868" lon="5.91696">
        <ele>402.93</ele>
        <time>2017-02-25T13:42:36Z</time>
      </trkpt>
      <trkpt lat="43.53869" lon="5.91695">
        <ele>402.93</ele>
        <time>2017-02-25T13:42:55Z</time>
      </trkpt>
      <trkpt lat="43.53868" lon="5.91696">
        <ele>402.45</ele>
        <time>2017-02-25T13:43:24Z</time>
      </trkpt>
      <trkpt lat="43.53872" lon="5.91704">
        <ele>402.45</ele>
        <time>2017-02-25T13:43:48Z</time>
      </trkpt>
      <trkpt lat="43.53879" lon="5.91718">
        <ele>402.45</ele>
        <time>2017-02-25T13:44:02Z</time>
      </trkpt>
      <trkpt lat="43.53888" lon="5.91726">
        <ele>401.49</ele>
        <time>2017-02-25T13:44:15Z</time>
      </trkpt>
      <trkpt lat="43.53899" lon="5.9173">
        <ele>400.53</ele>
        <time>2017-02-25T13:44:29Z</time>
      </trkpt>
      <trkpt lat="43.53911" lon="5.91737">
        <ele>399.57</ele>
        <time>2017-02-25T13:44:45Z</time>
      </trkpt>
      <trkpt lat="43.5392" lon="5.9175">
        <ele>398.12</ele>
        <time>2017-02-25T13:45:00Z</time>
      </trkpt>
      <trkpt lat="43.53927" lon="5.91767">
        <ele>397.16</ele>
        <time>2017-02-25T13:45:17Z</time>
      </trkpt>
      <trkpt lat="43.53936" lon="5.91778">
        <ele>396.2</ele>
        <time>2017-02-25T13:45:30Z</time>
      </trkpt>
      <trkpt lat="43.5394" lon="5.91789">
        <ele>395.24</ele>
        <time>2017-02-25T13:45:43Z</time>
      </trkpt>
      <trkpt lat="43.53944" lon="5.91801">
        <ele>394.76</ele>
        <time>2017-02-25T13:46:03Z</time>
      </trkpt>
      <trkpt lat="43.53946" lon="5.91816">
        <ele>393.8</ele>
        <time>2017-02-25T13:46:20Z</time>
      </trkpt>
      <trkpt lat="43.53945" lon="5.91827">
        <ele>392.84</ele>
        <time>2017-02-25T13:46:30Z</time>
      </trkpt>
      <trkpt lat="43.53944" lon="5.9185">
        <ele>391.39</ele>
        <time>2017-02-25T13:46:46Z</time>
      </trkpt>
      <trkpt lat="43.53944" lon="5.91864">
        <ele>390.43</ele>
        <time>2017-02-25T13:47:00Z</time>
      </trkpt>
      <trkpt lat="43.53942" lon="5.91878">
        <ele>389.95</ele>
        <time>2017-02-25T13:47:14Z</time>
      </trkpt>
      <trkpt lat="43.53938" lon="5.91894">
        <ele>389.47</ele>
        <time>2017-02-25T13:47:30Z</time>
      </trkpt>
      <trkpt lat="43.5393" lon="5.91909">
        <ele>388.99</ele>
        <time>2017-02-25T13:47:44Z</time>
      </trkpt>
      <trkpt lat="43.5392" lon="5.91924">
        <ele>387.55</ele>
        <time>2017-02-25T13:48:01Z</time>
      </trkpt>
      <trkpt lat="43.53913" lon="5.91944">
        <ele>386.59</ele>
        <time>2017-02-25T13:48:19Z</time>
      </trkpt>
      <trkpt lat="43.5391" lon="5.91963">
        <ele>385.63</ele>
        <time>2017-02-25T13:48:35Z</time>
      </trkpt>
      <trkpt lat="43.53907" lon="5.91981">
        <ele>385.15</ele>
        <time>2017-02-25T13:48:51Z</time>
      </trkpt>
      <trkpt lat="43.53903" lon="5.91998">
        <ele>384.18</ele>
        <time>2017-02-25T13:49:05Z</time>
      </trkpt>
      <trkpt lat="43.53894" lon="5.92016">
        <ele>382.74</ele>
        <time>2017-02-25T13:49:23Z</time>
      </trkpt>
      <trkpt lat="43.53888" lon="5.92028">
        <ele>382.26</ele>
        <time>2017-02-25T13:49:40Z</time>
      </trkpt>
      <trkpt lat="43.53882" lon="5.92037">
        <ele>381.78</ele>
        <time>2017-02-25T13:49:54Z</time>
      </trkpt>
      <trkpt lat="43.53874" lon="5.92051">
        <ele>380.82</ele>
        <time>2017-02-25T13:50:09Z</time>
      </trkpt>
      <trkpt lat="43.53871" lon="5.92066">
        <ele>380.34</ele>
        <time>2017-02-25T13:50:26Z</time>
      </trkpt>
      <trkpt lat="43.53869" lon="5.92069">
        <ele>380.34</ele>
        <time>2017-02-25T13:50:54Z</time>
      </trkpt>
      <trkpt lat="43.53868" lon="5.92067">
        <ele>379.86</ele>
        <time>2017-02-25T13:51:22Z</time>
      </trkpt>
      <trkpt lat="43.53868" lon="5.92066">
        <ele>379.86</ele>
        <time>2017-02-25T13:51:44Z</time>
      </trkpt>
      <trkpt lat="43.53868" lon="5.92064">
        <ele>380.34</ele>
        <time>2017-02-25T13:52:18Z</time>
      </trkpt>
      <trkpt lat="43.53866" lon="5.92066">
        <ele>380.34</ele>
        <time>2017-02-25T13:52:53Z</time>
      </trkpt>
      <trkpt lat="43.53873" lon="5.92082">
        <ele>379.86</ele>
        <time>2017-02-25T13:53:08Z</time>
      </trkpt>
      <trkpt lat="43.53879" lon="5.92099">
        <ele>379.38</ele>
        <time>2017-02-25T13:53:23Z</time>
      </trkpt>
      <trkpt lat="43.53879" lon="5.92116">
        <ele>378.42</ele>
        <time>2017-02-25T13:53:39Z</time>
      </trkpt>
      <trkpt lat="43.53874" lon="5.92131">
        <ele>377.45</ele>
        <time>2017-02-25T13:53:53Z</time>
      </trkpt>
      <trkpt lat="43.53867" lon="5.92142">
        <ele>376.49</ele>
        <time>2017-02-25T13:54:05Z</time>
      </trkpt>
      <trkpt lat="43.53857" lon="5.92152">
        <ele>376.01</ele>
        <time>2017-02-25T13:54:20Z</time>
      </trkpt>
      <trkpt lat="43.53846" lon="5.92162">
        <ele>375.05</ele>
        <time>2017-02-25T13:54:35Z</time>
      </trkpt>
      <trkpt lat="43.53833" lon="5.92169">
        <ele>374.09</ele>
        <time>2017-02-25T13:54:48Z</time>
      </trkpt>
      <trkpt lat="43.53819" lon="5.92172">
        <ele>373.13</ele>
        <time>2017-02-25T13:55:04Z</time>
      </trkpt>
      <trkpt lat="43.53804" lon="5.92173">
        <ele>372.65</ele>
        <time>2017-02-25T13:55:22Z</time>
      </trkpt>
      <trkpt lat="43.53789" lon="5.92175">
        <ele>371.69</ele>
        <time>2017-02-25T13:55:38Z</time>
      </trkpt>
      <trkpt lat="43.53776" lon="5.9218">
        <ele>371.21</ele>
        <time>2017-02-25T13:55:52Z</time>
      </trkpt>
      <trkpt lat="43.53767" lon="5.92187">
        <ele>370.73</ele>
        <time>2017-02-25T13:56:06Z</time>
      </trkpt>
      <trkpt lat="43.53759" lon="5.922">
        <ele>369.76</ele>
        <time>2017-02-25T13:56:20Z</time>
      </trkpt>
      <trkpt lat="43.53748" lon="5.92216">
        <ele>368.8</ele>
        <time>2017-02-25T13:56:36Z</time>
      </trkpt>
      <trkpt lat="43.53736" lon="5.92226">
        <ele>367.84</ele>
        <time>2017-02-25T13:56:53Z</time>
      </trkpt>
      <trkpt lat="43.53726" lon="5.92237">
        <ele>366.88</ele>
        <time>2017-02-25T13:57:08Z</time>
      </trkpt>
      <trkpt lat="43.53718" lon="5.92246">
        <ele>366.4</ele>
        <time>2017-02-25T13:57:20Z</time>
      </trkpt>
      <trkpt lat="43.53709" lon="5.92257">
        <ele>365.92</ele>
        <time>2017-02-25T13:57:32Z</time>
      </trkpt>
      <trkpt lat="43.53704" lon="5.92275">
        <ele>365.44</ele>
        <time>2017-02-25T13:57:47Z</time>
      </trkpt>
      <trkpt lat="43.53701" lon="5.92295">
        <ele>364.48</ele>
        <time>2017-02-25T13:58:04Z</time>
      </trkpt>
      <trkpt lat="43.53699" lon="5.92308">
        <ele>363.52</ele>
        <time>2017-02-25T13:58:20Z</time>
      </trkpt>
      <trkpt lat="43.5369" lon="5.92321">
        <ele>362.07</ele>
        <time>2017-02-25T13:58:36Z</time>
      </trkpt>
      <trkpt lat="43.5368" lon="5.92331">
        <ele>361.59</ele>
        <time>2017-02-25T13:58:50Z</time>
      </trkpt>
      <trkpt lat="43.53668" lon="5.92342">
        <ele>361.11</ele>
        <time>2017-02-25T13:59:07Z</time>
      </trkpt>
      <trkpt lat="43.53663" lon="5.9235">
        <ele>360.63</ele>
        <time>2017-02-25T13:59:23Z</time>
      </trkpt>
      <trkpt lat="43.53661" lon="5.92349">
        <ele>360.15</ele>
        <time>2017-02-25T13:59:49Z</time>
      </trkpt>
      <trkpt lat="43.53658" lon="5.92357">
        <ele>360.15</ele>
        <time>2017-02-25T14:00:14Z</time>
      </trkpt>
      <trkpt lat="43.53651" lon="5.92375">
        <ele>359.19</ele>
        <time>2017-02-25T14:00:31Z</time>
      </trkpt>
      <trkpt lat="43.53648" lon="5.92381">
        <ele>358.71</ele>
        <time>2017-02-25T14:00:36Z</time>
      </trkpt>
      <trkpt lat="43.53639" lon="5.924">
        <ele>358.23</ele>
        <time>2017-02-25T14:00:53Z</time>
      </trkpt>
      <trkpt lat="43.53632" lon="5.92416">
        <ele>357.27</ele>
        <time>2017-02-25T14:01:08Z</time>
      </trkpt>
      <trkpt lat="43.53622" lon="5.92432">
        <ele>356.79</ele>
        <time>2017-02-25T14:01:23Z</time>
      </trkpt>
      <trkpt lat="43.5361" lon="5.92445">
        <ele>355.83</ele>
        <time>2017-02-25T14:01:38Z</time>
      </trkpt>
      <trkpt lat="43.53607" lon="5.92448">
        <ele>354.38</ele>
        <time>2017-02-25T14:01:51Z</time>
      </trkpt>
      <trkpt lat="43.53608" lon="5.92448">
        <ele>353.9</ele>
        <time>2017-02-25T14:02:15Z</time>
      </trkpt>
      <trkpt lat="43.53608" lon="5.92448">
        <ele>353.9</ele>
        <time>2017-02-25T14:02:34Z</time>
      </trkpt>
      <trkpt lat="43.53602" lon="5.92447">
        <ele>353.9</ele>
        <time>2017-02-25T14:03:03Z</time>
      </trkpt>
      <trkpt lat="43.5359" lon="5.92451">
        <ele>352.94</ele>
        <time>2017-02-25T14:03:18Z</time>
      </trkpt>
      <trkpt lat="43.53581" lon="5.92452">
        <ele>352.46</ele>
        <time>2017-02-25T14:03:34Z</time>
      </trkpt>
      <trkpt lat="43.53572" lon="5.92453">
        <ele>351.98</ele>
        <time>2017-02-25T14:03:45Z</time>
      </trkpt>
      <trkpt lat="43.53562" lon="5.92457">
        <ele>351.5</ele>
        <time>2017-02-25T14:03:59Z</time>
      </trkpt>
      <trkpt lat="43.53554" lon="5.92468">
        <ele>350.54</ele>
        <time>2017-02-25T14:04:14Z</time>
      </trkpt>
      <trkpt lat="43.53551" lon="5.92486">
        <ele>349.58</ele>
        <time>2017-02-25T14:04:31Z</time>
      </trkpt>
      <trkpt lat="43.53548" lon="5.92503">
        <ele>348.62</ele>
        <time>2017-02-25T14:04:46Z</time>
      </trkpt>
      <trkpt lat="43.53544" lon="5.92517">
        <ele>348.13</ele>
        <time>2017-02-25T14:04:59Z</time>
      </trkpt>
      <trkpt lat="43.5354" lon="5.92535">
        <ele>347.17</ele>
        <time>2017-02-25T14:05:14Z</time>
      </trkpt>
      <trkpt lat="43.53527" lon="5.92553">
        <ele>345.73</ele>
        <time>2017-02-25T14:05:30Z</time>
      </trkpt>
      <trkpt lat="43.53513" lon="5.92562">
        <ele>345.25</ele>
        <time>2017-02-25T14:05:46Z</time>
      </trkpt>
      <trkpt lat="43.53502" lon="5.92561">
        <ele>344.29</ele>
        <time>2017-02-25T14:06:01Z</time>
      </trkpt>
      <trkpt lat="43.53491" lon="5.92558">
        <ele>343.81</ele>
        <time>2017-02-25T14:06:18Z</time>
      </trkpt>
      <trkpt lat="43.5348" lon="5.92553">
        <ele>343.33</ele>
        <time>2017-02-25T14:06:31Z</time>
      </trkpt>
      <trkpt lat="43.53471" lon="5.92551">
        <ele>342.37</ele>
        <time>2017-02-25T14:06:44Z</time>
      </trkpt>
      <trkpt lat="43.53465" lon="5.92563">
        <ele>341.41</ele>
        <time>2017-02-25T14:07:00Z</time>
      </trkpt>
      <trkpt lat="43.53461" lon="5.92578">
        <ele>340.92</ele>
        <time>2017-02-25T14:07:16Z</time>
      </trkpt>
      <trkpt lat="43.53461" lon="5.9259">
        <ele>339.96</ele>
        <time>2017-02-25T14:07:30Z</time>
      </trkpt>
      <trkpt lat="43.5346" lon="5.92606">
        <ele>339</ele>
        <time>2017-02-25T14:07:45Z</time>
      </trkpt>
      <trkpt lat="43.53455" lon="5.92619">
        <ele>338.52</ele>
        <time>2017-02-25T14:07:55Z</time>
      </trkpt>
      <trkpt lat="43.53445" lon="5.92628">
        <ele>337.56</ele>
        <time>2017-02-25T14:08:10Z</time>
      </trkpt>
      <trkpt lat="43.53433" lon="5.92637">
        <ele>336.6</ele>
        <time>2017-02-25T14:08:27Z</time>
      </trkpt>
      <trkpt lat="43.53421" lon="5.92644">
        <ele>336.12</ele>
        <time>2017-02-25T14:08:43Z</time>
      </trkpt>
      <trkpt lat="43.53409" lon="5.92649">
        <ele>335.16</ele>
        <time>2017-02-25T14:08:59Z</time>
      </trkpt>
      <trkpt lat="43.53398" lon="5.92657">
        <ele>334.68</ele>
        <time>2017-02-25T14:09:13Z</time>
      </trkpt>
      <trkpt lat="43.53393" lon="5.92662">
        <ele>333.23</ele>
        <time>2017-02-25T14:09:27Z</time>
      </trkpt>
      <trkpt lat="43.53389" lon="5.92677">
        <ele>332.27</ele>
        <time>2017-02-25T14:09:42Z</time>
      </trkpt>
      <trkpt lat="43.53384" lon="5.92691">
        <ele>331.79</ele>
        <time>2017-02-25T14:09:57Z</time>
      </trkpt>
      <trkpt lat="43.53379" lon="5.92706">
        <ele>330.83</ele>
        <time>2017-02-25T14:10:13Z</time>
      </trkpt>
      <trkpt lat="43.53375" lon="5.92716">
        <ele>330.83</ele>
        <time>2017-02-25T14:10:29Z</time>
      </trkpt>
      <trkpt lat="43.5337" lon="5.92724">
        <ele>330.83</ele>
        <time>2017-02-25T14:10:42Z</time>
      </trkpt>
      <trkpt lat="43.53367" lon="5.9273">
        <ele>330.35</ele>
        <time>2017-02-25T14:10:58Z</time>
      </trkpt>
      <trkpt lat="43.53363" lon="5.92729">
        <ele>330.35</ele>
        <time>2017-02-25T14:11:23Z</time>
      </trkpt>
      <trkpt lat="43.53363" lon="5.9273">
        <ele>329.87</ele>
        <time>2017-02-25T14:12:01Z</time>
      </trkpt>
      <trkpt lat="43.53365" lon="5.92736">
        <ele>329.87</ele>
        <time>2017-02-25T14:12:28Z</time>
      </trkpt>
      <trkpt lat="43.53357" lon="5.92745">
        <ele>329.39</ele>
        <time>2017-02-25T14:12:42Z</time>
      </trkpt>
      <trkpt lat="43.53347" lon="5.92756">
        <ele>328.91</ele>
        <time>2017-02-25T14:12:56Z</time>
      </trkpt>
      <trkpt lat="43.53338" lon="5.92769">
        <ele>327.95</ele>
        <time>2017-02-25T14:13:11Z</time>
      </trkpt>
      <trkpt lat="43.53332" lon="5.92786">
        <ele>326.99</ele>
        <time>2017-02-25T14:13:26Z</time>
      </trkpt>
      <trkpt lat="43.53327" lon="5.92805">
        <ele>326.02</ele>
        <time>2017-02-25T14:13:42Z</time>
      </trkpt>
      <trkpt lat="43.53323" lon="5.92828">
        <ele>325.06</ele>
        <time>2017-02-25T14:13:59Z</time>
      </trkpt>
      <trkpt lat="43.53322" lon="5.92848">
        <ele>324.1</ele>
        <time>2017-02-25T14:14:16Z</time>
      </trkpt>
      <trkpt lat="43.53323" lon="5.9287">
        <ele>323.14</ele>
        <time>2017-02-25T14:14:33Z</time>
      </trkpt>
      <trkpt lat="43.53323" lon="5.92889">
        <ele>322.66</ele>
        <time>2017-02-25T14:14:48Z</time>
      </trkpt>
      <trkpt lat="43.53323" lon="5.92906">
        <ele>321.7</ele>
        <time>2017-02-25T14:15:03Z</time>
      </trkpt>
      <trkpt lat="43.53312" lon="5.92917">
        <ele>320.74</ele>
        <time>2017-02-25T14:15:17Z</time>
      </trkpt>
      <trkpt lat="43.53301" lon="5.92923">
        <ele>320.26</ele>
        <time>2017-02-25T14:15:32Z</time>
      </trkpt>
      <trkpt lat="43.53287" lon="5.92932">
        <ele>319.3</ele>
        <time>2017-02-25T14:15:49Z</time>
      </trkpt>
      <trkpt lat="43.53275" lon="5.92939">
        <ele>318.33</ele>
        <time>2017-02-25T14:16:03Z</time>
      </trkpt>
      <trkpt lat="43.53266" lon="5.92954">
        <ele>318.33</ele>
        <time>2017-02-25T14:16:19Z</time>
      </trkpt>
      <trkpt lat="43.53261" lon="5.92975">
        <ele>316.89</ele>
        <time>2017-02-25T14:16:37Z</time>
      </trkpt>
      <trkpt lat="43.53256" lon="5.92994">
        <ele>316.41</ele>
        <time>2017-02-25T14:16:53Z</time>
      </trkpt>
      <trkpt lat="43.53252" lon="5.93012">
        <ele>315.45</ele>
        <time>2017-02-25T14:17:08Z</time>
      </trkpt>
      <trkpt lat="43.5325" lon="5.93024">
        <ele>314.97</ele>
        <time>2017-02-25T14:17:18Z</time>
      </trkpt>
      <trkpt lat="43.53249" lon="5.93046">
        <ele>313.53</ele>
        <time>2017-02-25T14:17:34Z</time>
      </trkpt>
      <trkpt lat="43.53247" lon="5.93065">
        <ele>313.05</ele>
        <time>2017-02-25T14:17:49Z</time>
      </trkpt>
      <trkpt lat="43.53237" lon="5.93083">
        <ele>311.6</ele>
        <time>2017-02-25T14:22:28Z</time>
      </trkpt>
      <trkpt lat="43.53235" lon="5.9309">
        <ele>311.6</ele>
        <time>2017-02-25T14:22:49Z</time>
      </trkpt>
      <trkpt lat="43.53233" lon="5.93092">
        <ele>311.6</ele>
        <time>2017-02-25T14:23:05Z</time>
      </trkpt>
      <trkpt lat="43.53232" lon="5.93107">
        <ele>310.64</ele>
        <time>2017-02-25T14:23:20Z</time>
      </trkpt>
      <trkpt lat="43.53229" lon="5.93122">
        <ele>310.16</ele>
        <time>2017-02-25T14:23:37Z</time>
      </trkpt>
      <trkpt lat="43.53226" lon="5.93136">
        <ele>309.2</ele>
        <time>2017-02-25T14:23:56Z</time>
      </trkpt>
      <trkpt lat="43.53226" lon="5.93137">
        <ele>309.2</ele>
        <time>2017-02-25T14:24:19Z</time>
      </trkpt>
      <trkpt lat="43.53224" lon="5.93137">
        <ele>309.2</ele>
        <time>2017-02-25T14:24:48Z</time>
      </trkpt>
      <trkpt lat="43.53224" lon="5.93137">
        <ele>309.2</ele>
        <time>2017-02-25T14:25:12Z</time>
      </trkpt>
      <trkpt lat="43.53224" lon="5.93144">
        <ele>309.2</ele>
        <time>2017-02-25T14:25:28Z</time>
      </trkpt>
      <trkpt lat="43.53223" lon="5.93162">
        <ele>309.2</ele>
        <time>2017-02-25T14:25:45Z</time>
      </trkpt>
      <trkpt lat="43.53219" lon="5.93185">
        <ele>308.24</ele>
        <time>2017-02-25T14:26:02Z</time>
      </trkpt>
      <trkpt lat="43.53211" lon="5.93208">
        <ele>307.28</ele>
        <time>2017-02-25T14:26:21Z</time>
      </trkpt>
      <trkpt lat="43.53201" lon="5.9323">
        <ele>305.84</ele>
        <time>2017-02-25T14:26:40Z</time>
      </trkpt>
      <trkpt lat="43.53191" lon="5.93252">
        <ele>303.43</ele>
        <time>2017-02-25T14:26:59Z</time>
      </trkpt>
      <trkpt lat="43.53182" lon="5.93277">
        <ele>301.51</ele>
        <time>2017-02-25T14:27:18Z</time>
      </trkpt>
      <trkpt lat="43.53177" lon="5.93289">
        <ele>300.55</ele>
        <time>2017-02-25T14:27:28Z</time>
      </trkpt>
      <trkpt lat="43.53174" lon="5.93292">
        <ele>300.55</ele>
        <time>2017-02-25T14:27:31Z</time>
      </trkpt>
      <trkpt lat="43.53164" lon="5.93318">
        <ele>298.15</ele>
        <time>2017-02-25T14:27:51Z</time>
      </trkpt>
      <trkpt lat="43.53155" lon="5.93342">
        <ele>296.7</ele>
        <time>2017-02-25T14:28:09Z</time>
      </trkpt>
      <trkpt lat="43.53145" lon="5.93365">
        <ele>296.22</ele>
        <time>2017-02-25T14:28:27Z</time>
      </trkpt>
      <trkpt lat="43.53133" lon="5.9339">
        <ele>295.74</ele>
        <time>2017-02-25T14:28:46Z</time>
      </trkpt>
      <trkpt lat="43.53123" lon="5.93413">
        <ele>294.78</ele>
        <time>2017-02-25T14:29:04Z</time>
      </trkpt>
      <trkpt lat="43.53116" lon="5.93428">
        <ele>294.78</ele>
        <time>2017-02-25T14:29:16Z</time>
      </trkpt>
      <trkpt lat="43.53107" lon="5.9345">
        <ele>294.3</ele>
        <time>2017-02-25T14:29:33Z</time>
      </trkpt>
      <trkpt lat="43.53095" lon="5.93474">
        <ele>294.3</ele>
        <time>2017-02-25T14:29:52Z</time>
      </trkpt>
      <trkpt lat="43.53087" lon="5.93496">
        <ele>294.3</ele>
        <time>2017-02-25T14:30:08Z</time>
      </trkpt>
      <trkpt lat="43.53081" lon="5.93512">
        <ele>294.3</ele>
        <time>2017-02-25T14:30:20Z</time>
      </trkpt>
      <trkpt lat="43.53071" lon="5.93534">
        <ele>294.3</ele>
        <time>2017-02-25T14:30:37Z</time>
      </trkpt>
      <trkpt lat="43.53067" lon="5.93541">
        <ele>294.3</ele>
        <time>2017-02-25T14:30:43Z</time>
      </trkpt>
      <trkpt lat="43.53058" lon="5.93558">
        <ele>294.3</ele>
        <time>2017-02-25T14:30:56Z</time>
      </trkpt>
      <trkpt lat="43.53056" lon="5.93565">
        <ele>294.3</ele>
        <time>2017-02-25T14:31:10Z</time>
      </trkpt>
      <trkpt lat="43.53054" lon="5.9357">
        <ele>294.3</ele>
        <time>2017-02-25T14:31:30Z</time>
      </trkpt>
      <trkpt lat="43.5304" lon="5.93599">
        <ele>293.34</ele>
        <time>2017-02-25T14:31:51Z</time>
      </trkpt>
      <trkpt lat="43.53029" lon="5.93624">
        <ele>291.9</ele>
        <time>2017-02-25T14:32:09Z</time>
      </trkpt>
      <trkpt lat="43.53017" lon="5.9365">
        <ele>289.97</ele>
        <time>2017-02-25T14:32:28Z</time>
      </trkpt>
      <trkpt lat="43.53005" lon="5.93679">
        <ele>288.53</ele>
        <time>2017-02-25T14:32:48Z</time>
      </trkpt>
      <trkpt lat="43.52993" lon="5.93705">
        <ele>288.53</ele>
        <time>2017-02-25T14:33:07Z</time>
      </trkpt>
      <trkpt lat="43.52979" lon="5.93724">
        <ele>288.05</ele>
        <time>2017-02-25T14:33:24Z</time>
      </trkpt>
      <trkpt lat="43.52965" lon="5.93736">
        <ele>288.53</ele>
        <time>2017-02-25T14:33:39Z</time>
      </trkpt>
      <trkpt lat="43.52945" lon="5.93752">
        <ele>287.57</ele>
        <time>2017-02-25T14:33:58Z</time>
      </trkpt>
      <trkpt lat="43.52928" lon="5.93766">
        <ele>286.13</ele>
        <time>2017-02-25T14:34:15Z</time>
      </trkpt>
      <trkpt lat="43.52913" lon="5.93781">
        <ele>285.65</ele>
        <time>2017-02-25T14:34:31Z</time>
      </trkpt>
      <trkpt lat="43.52894" lon="5.93794">
        <ele>285.17</ele>
        <time>2017-02-25T14:34:49Z</time>
      </trkpt>
      <trkpt lat="43.52877" lon="5.93809">
        <ele>285.17</ele>
        <time>2017-02-25T14:35:07Z</time>
      </trkpt>
      <trkpt lat="43.52875" lon="5.93811">
        <ele>284.69</ele>
        <time>2017-02-25T14:35:20Z</time>
      </trkpt>
      <trkpt lat="43.52862" lon="5.9382">
        <ele>284.21</ele>
        <time>2017-02-25T14:35:36Z</time>
      </trkpt>
      <trkpt lat="43.52834" lon="5.93839">
        <ele>284.21</ele>
        <time>2017-02-25T14:40:37Z</time>
      </trkpt>
      <trkpt lat="43.5282" lon="5.93852">
        <ele>284.21</ele>
        <time>2017-02-25T14:40:53Z</time>
      </trkpt>
      <trkpt lat="43.52814" lon="5.93861">
        <ele>284.21</ele>
        <time>2017-02-25T14:41:03Z</time>
      </trkpt>
      <trkpt lat="43.52808" lon="5.93887">
        <ele>282.77</ele>
        <time>2017-02-25T14:41:23Z</time>
      </trkpt>
      <trkpt lat="43.52804" lon="5.93911">
        <ele>281.8</ele>
        <time>2017-02-25T14:41:40Z</time>
      </trkpt>
      <trkpt lat="43.52799" lon="5.93941">
        <ele>280.84</ele>
        <time>2017-02-25T14:42:01Z</time>
      </trkpt>
      <trkpt lat="43.52795" lon="5.93968">
        <ele>279.4</ele>
        <time>2017-02-25T14:42:19Z</time>
      </trkpt>
      <trkpt lat="43.52792" lon="5.93997">
        <ele>278.44</ele>
        <time>2017-02-25T14:42:37Z</time>
      </trkpt>
      <trkpt lat="43.52789" lon="5.94029">
        <ele>277.48</ele>
        <time>2017-02-25T14:42:57Z</time>
      </trkpt>
      <trkpt lat="43.52785" lon="5.94064">
        <ele>276.04</ele>
        <time>2017-02-25T14:43:18Z</time>
      </trkpt>
      <trkpt lat="43.52782" lon="5.94093">
        <ele>274.59</ele>
        <time>2017-02-25T14:43:37Z</time>
      </trkpt>
      <trkpt lat="43.52778" lon="5.9412">
        <ele>273.63</ele>
        <time>2017-02-25T14:43:55Z</time>
      </trkpt>
      <trkpt lat="43.52774" lon="5.94149">
        <ele>272.19</ele>
        <time>2017-02-25T14:44:13Z</time>
      </trkpt>
      <trkpt lat="43.52772" lon="5.94167">
        <ele>271.71</ele>
        <time>2017-02-25T14:44:25Z</time>
      </trkpt>
      <trkpt lat="43.5277" lon="5.94191">
        <ele>270.75</ele>
        <time>2017-02-25T14:44:41Z</time>
      </trkpt>
      <trkpt lat="43.52768" lon="5.94204">
        <ele>269.79</ele>
        <time>2017-02-25T14:44:58Z</time>
      </trkpt>
      <trkpt lat="43.52766" lon="5.9422">
        <ele>268.83</ele>
        <time>2017-02-25T14:45:17Z</time>
      </trkpt>
      <trkpt lat="43.52766" lon="5.94221">
        <ele>268.83</ele>
        <time>2017-02-25T14:45:18Z</time>
      </trkpt>
      <trkpt lat="43.52764" lon="5.9423">
        <ele>268.35</ele>
        <time>2017-02-25T14:45:24Z</time>
      </trkpt>
      <trkpt lat="43.52761" lon="5.94256">
        <ele>265.94</ele>
        <time>2017-02-25T14:45:43Z</time>
      </trkpt>
      <trkpt lat="43.52756" lon="5.94287">
        <ele>264.5</ele>
        <time>2017-02-25T14:46:03Z</time>
      </trkpt>
      <trkpt lat="43.52751" lon="5.94311">
        <ele>263.54</ele>
        <time>2017-02-25T14:46:22Z</time>
      </trkpt>
      <trkpt lat="43.52751" lon="5.94325">
        <ele>263.06</ele>
        <time>2017-02-25T14:46:38Z</time>
      </trkpt>
      <trkpt lat="43.52747" lon="5.94351">
        <ele>262.58</ele>
        <time>2017-02-25T14:46:55Z</time>
      </trkpt>
      <trkpt lat="43.5274" lon="5.94373">
        <ele>262.58</ele>
        <time>2017-02-25T14:47:12Z</time>
      </trkpt>
      <trkpt lat="43.52742" lon="5.9438">
        <ele>262.58</ele>
        <time>2017-02-25T14:47:29Z</time>
      </trkpt>
      <trkpt lat="43.52733" lon="5.94402">
        <ele>262.58</ele>
        <time>2017-02-25T14:47:46Z</time>
      </trkpt>
      <trkpt lat="43.52719" lon="5.94411">
        <ele>262.1</ele>
        <time>2017-02-25T14:48:02Z</time>
      </trkpt>
      <trkpt lat="43.52715" lon="5.94413">
        <ele>261.62</ele>
        <time>2017-02-25T14:48:19Z</time>
      </trkpt>
      <trkpt lat="43.5271" lon="5.94415">
        <ele>260.65</ele>
        <time>2017-02-25T14:48:40Z</time>
      </trkpt>
      <trkpt lat="43.5271" lon="5.94414">
        <ele>260.65</ele>
        <time>2017-02-25T14:48:41Z</time>
      </trkpt>
      <trkpt lat="43.52699" lon="5.94393">
        <ele>260.65</ele>
        <time>2017-02-25T14:48:56Z</time>
      </trkpt>
      <trkpt lat="43.52695" lon="5.94386">
        <ele>260.65</ele>
        <time>2017-02-25T14:49:04Z</time>
      </trkpt>
      <trkpt lat="43.52691" lon="5.94387">
        <ele>260.65</ele>
        <time>2017-02-25T14:49:07Z</time>
      </trkpt>
      <trkpt lat="43.52687" lon="5.94384">
        <ele>260.17</ele>
        <time>2017-02-25T14:49:11Z</time>
      </trkpt>
      <trkpt lat="43.52677" lon="5.94355">
        <ele>260.17</ele>
        <time>2017-02-25T14:49:32Z</time>
      </trkpt>
      <trkpt lat="43.52675" lon="5.94349">
        <ele>260.17</ele>
        <time>2017-02-25T14:49:36Z</time>
      </trkpt>
      <trkpt lat="43.52664" lon="5.94321">
        <ele>260.17</ele>
        <time>2017-02-25T14:49:54Z</time>
      </trkpt>
      <trkpt lat="43.52651" lon="5.94301">
        <ele>261.62</ele>
        <time>2017-02-25T14:50:09Z</time>
      </trkpt>
      <trkpt lat="43.52643" lon="5.94287">
        <ele>261.62</ele>
        <time>2017-02-25T14:50:23Z</time>
      </trkpt>
      <trkpt lat="43.5264" lon="5.9428">
        <ele>261.62</ele>
        <time>2017-02-25T14:50:35Z</time>
      </trkpt>
      <trkpt lat="43.5264" lon="5.94282">
        <ele>262.1</ele>
        <time>2017-02-25T14:50:52Z</time>
      </trkpt>
      <trkpt lat="43.52639" lon="5.94278">
        <ele>262.1</ele>
        <time>2017-02-25T14:51:02Z</time>
      </trkpt>
      <trkpt lat="43.52638" lon="5.94277">
        <ele>262.1</ele>
        <time>2017-02-25T14:51:04Z</time>
      </trkpt>
      <trkpt lat="43.52628" lon="5.94257">
        <ele>262.1</ele>
        <time>2017-02-25T14:51:20Z</time>
      </trkpt>
      <trkpt lat="43.52618" lon="5.94235">
        <ele>262.1</ele>
        <time>2017-02-25T14:51:37Z</time>
      </trkpt>
      <trkpt lat="43.52609" lon="5.94217">
        <ele>262.1</ele>
        <time>2017-02-25T14:51:52Z</time>
      </trkpt>
      <trkpt lat="43.52599" lon="5.94197">
        <ele>262.1</ele>
        <time>2017-02-25T14:52:07Z</time>
      </trkpt>
      <trkpt lat="43.52585" lon="5.94174">
        <ele>262.1</ele>
        <time>2017-02-25T14:52:26Z</time>
      </trkpt>
      <trkpt lat="43.52569" lon="5.9416">
        <ele>262.1</ele>
        <time>2017-02-25T14:52:43Z</time>
      </trkpt>
      <trkpt lat="43.52564" lon="5.94152">
        <ele>262.1</ele>
        <time>2017-02-25T14:52:50Z</time>
      </trkpt>
      <trkpt lat="43.52552" lon="5.94135">
        <ele>262.1</ele>
        <time>2017-02-25T14:53:06Z</time>
      </trkpt>
      <trkpt lat="43.52537" lon="5.94119">
        <ele>262.58</ele>
        <time>2017-02-25T14:53:23Z</time>
      </trkpt>
      <trkpt lat="43.52522" lon="5.94104">
        <ele>263.06</ele>
        <time>2017-02-25T14:53:39Z</time>
      </trkpt>
      <trkpt lat="43.52506" lon="5.94086">
        <ele>263.06</ele>
        <time>2017-02-25T14:53:57Z</time>
      </trkpt>
      <trkpt lat="43.52499" lon="5.94077">
        <ele>263.54</ele>
        <time>2017-02-25T14:54:10Z</time>
      </trkpt>
      <trkpt lat="43.52484" lon="5.94072">
        <ele>263.54</ele>
        <time>2017-02-25T14:54:24Z</time>
      </trkpt>
      <trkpt lat="43.52467" lon="5.94056">
        <ele>263.54</ele>
        <time>2017-02-25T14:54:41Z</time>
      </trkpt>
      <trkpt lat="43.52454" lon="5.94042">
        <ele>263.54</ele>
        <time>2017-02-25T14:54:56Z</time>
      </trkpt>
      <trkpt lat="43.52451" lon="5.9404">
        <ele>261.62</ele>
        <time>2017-02-25T14:54:59Z</time>
      </trkpt>
      <trkpt lat="43.52445" lon="5.94015">
        <ele>264.02</ele>
        <time>2017-02-25T14:55:15Z</time>
      </trkpt>
      <trkpt lat="43.52433" lon="5.93997">
        <ele>264.02</ele>
        <time>2017-02-25T14:55:31Z</time>
      </trkpt>
      <trkpt lat="43.52418" lon="5.9398">
        <ele>264.02</ele>
        <time>2017-02-25T14:55:47Z</time>
      </trkpt>
      <trkpt lat="43.52411" lon="5.93976">
        <ele>264.5</ele>
        <time>2017-02-25T14:55:53Z</time>
      </trkpt>
      <trkpt lat="43.52403" lon="5.9398">
        <ele>264.5</ele>
        <time>2017-02-25T14:56:09Z</time>
      </trkpt>
      <trkpt lat="43.52394" lon="5.93982">
        <ele>264.5</ele>
        <time>2017-02-25T14:56:32Z</time>
      </trkpt>
      <trkpt lat="43.52389" lon="5.93983">
        <ele>264.98</ele>
        <time>2017-02-25T14:56:48Z</time>
      </trkpt>
      <trkpt lat="43.52378" lon="5.93987">
        <ele>264.98</ele>
        <time>2017-02-25T14:57:05Z</time>
      </trkpt>
      <trkpt lat="43.52358" lon="5.93995">
        <ele>265.46</ele>
        <time>2017-02-25T14:57:24Z</time>
      </trkpt>
      <trkpt lat="43.5234" lon="5.94002">
        <ele>266.42</ele>
        <time>2017-02-25T14:57:43Z</time>
      </trkpt>
      <trkpt lat="43.52322" lon="5.94009">
        <ele>266.42</ele>
        <time>2017-02-25T14:58:00Z</time>
      </trkpt>
      <trkpt lat="43.5232" lon="5.9401">
        <ele>266.9</ele>
        <time>2017-02-25T14:58:02Z</time>
      </trkpt>
      <trkpt lat="43.52299" lon="5.94018">
        <ele>267.38</ele>
        <time>2017-02-25T14:58:23Z</time>
      </trkpt>
      <trkpt lat="43.52282" lon="5.94023">
        <ele>268.35</ele>
        <time>2017-02-25T14:58:40Z</time>
      </trkpt>
      <trkpt lat="43.52269" lon="5.94028">
        <ele>269.31</ele>
        <time>2017-02-25T14:58:53Z</time>
      </trkpt>
      <trkpt lat="43.52267" lon="5.94029">
        <ele>269.31</ele>
        <time>2017-02-25T14:58:55Z</time>
      </trkpt>
      <trkpt lat="43.52253" lon="5.94035">
        <ele>270.75</ele>
        <time>2017-02-25T14:59:10Z</time>
      </trkpt>
      <trkpt lat="43.52239" lon="5.9404">
        <ele>271.71</ele>
        <time>2017-02-25T14:59:25Z</time>
      </trkpt>
      <trkpt lat="43.52225" lon="5.94044">
        <ele>273.15</ele>
        <time>2017-02-25T14:59:40Z</time>
      </trkpt>
      <trkpt lat="43.52211" lon="5.94049">
        <ele>274.59</ele>
        <time>2017-02-25T14:59:55Z</time>
      </trkpt>
      <trkpt lat="43.52205" lon="5.94052">
        <ele>275.07</ele>
        <time>2017-02-25T15:00:08Z</time>
      </trkpt>
      <trkpt lat="43.52202" lon="5.94053">
        <ele>275.07</ele>
        <time>2017-02-25T15:00:34Z</time>
      </trkpt>
      <trkpt lat="43.52186" lon="5.94058">
        <ele>277</ele>
        <time>2017-02-25T15:00:48Z</time>
      </trkpt>
      <trkpt lat="43.52169" lon="5.94065">
        <ele>278.44</ele>
        <time>2017-02-25T15:01:04Z</time>
      </trkpt>
      <trkpt lat="43.52163" lon="5.94067">
        <ele>278.92</ele>
        <time>2017-02-25T15:01:10Z</time>
      </trkpt>
      <trkpt lat="43.52144" lon="5.94073">
        <ele>280.36</ele>
        <time>2017-02-25T15:01:28Z</time>
      </trkpt>
      <trkpt lat="43.52131" lon="5.94078">
        <ele>282.28</ele>
        <time>2017-02-25T15:01:41Z</time>
      </trkpt>
      <trkpt lat="43.52123" lon="5.94081">
        <ele>283.25</ele>
        <time>2017-02-25T15:01:49Z</time>
      </trkpt>
      <trkpt lat="43.52107" lon="5.94087">
        <ele>284.69</ele>
        <time>2017-02-25T15:02:04Z</time>
      </trkpt>
      <trkpt lat="43.52088" lon="5.94093">
        <ele>286.13</ele>
        <time>2017-02-25T15:02:21Z</time>
      </trkpt>
      <trkpt lat="43.52084" lon="5.94095">
        <ele>286.13</ele>
        <time>2017-02-25T15:02:25Z</time>
      </trkpt>
      <trkpt lat="43.52067" lon="5.94101">
        <ele>287.57</ele>
        <time>2017-02-25T15:02:43Z</time>
      </trkpt>
      <trkpt lat="43.52054" lon="5.94104">
        <ele>288.05</ele>
        <time>2017-02-25T15:02:58Z</time>
      </trkpt>
      <trkpt lat="43.52039" lon="5.94109">
        <ele>289.01</ele>
        <time>2017-02-25T15:03:16Z</time>
      </trkpt>
      <trkpt lat="43.52028" lon="5.94107">
        <ele>290.46</ele>
        <time>2017-02-25T15:03:31Z</time>
      </trkpt>
      <trkpt lat="43.52029" lon="5.94106">
        <ele>290.46</ele>
        <time>2017-02-25T15:03:45Z</time>
      </trkpt>
      <trkpt lat="43.52027" lon="5.94105">
        <ele>290.46</ele>
        <time>2017-02-25T15:04:11Z</time>
      </trkpt>
      <trkpt lat="43.52027" lon="5.94109">
        <ele>290.46</ele>
        <time>2017-02-25T15:04:48Z</time>
      </trkpt>
      <trkpt lat="43.52026" lon="5.94107">
        <ele>290.46</ele>
        <time>2017-02-25T15:05:22Z</time>
      </trkpt>
      <trkpt lat="43.52026" lon="5.9411">
        <ele>290.46</ele>
        <time>2017-02-25T15:05:38Z</time>
      </trkpt>
      <trkpt lat="43.52025" lon="5.94111">
        <ele>290.46</ele>
        <time>2017-02-25T15:06:10Z</time>
      </trkpt>
      <trkpt lat="43.52025" lon="5.94111">
        <ele>290.46</ele>
        <time>2017-02-25T15:06:36Z</time>
      </trkpt>
      <trkpt lat="43.52026" lon="5.94109">
        <ele>290.46</ele>
        <time>2017-02-25T15:07:11Z</time>
      </trkpt>
      <trkpt lat="43.52027" lon="5.94109">
        <ele>290.46</ele>
        <time>2017-02-25T15:07:51Z</time>
      </trkpt>
      <trkpt lat="43.52026" lon="5.94111">
        <ele>290.46</ele>
        <time>2017-02-25T15:08:31Z</time>
      </trkpt>
      <trkpt lat="43.52026" lon="5.9411">
        <ele>290.46</ele>
        <time>2017-02-25T15:09:02Z</time>
      </trkpt>
      <trkpt lat="43.52025" lon="5.9411">
        <ele>290.46</ele>
        <time>2017-02-25T15:09:38Z</time>
      </trkpt>
      <trkpt lat="43.52026" lon="5.94111">
        <ele>290.46</ele>
        <time>2017-02-25T15:10:09Z</time>
      </trkpt>
    </trkseg>
  </trk>
</gpx>